<?xml version="1.0" encoding="UTF-8" standalone="no" ?>
<gpx xmlns="http://www.topografix.com/GPX/1/1" xmlns:xsi="http://www.w3.org/2001/XMLSchema-instance" xsi:schemaLocation="http://www.topografix.com/GPX/1/1 http://www.topografix.com/GPX/1/1/gpx.xsd" version="1.1" creator="VisuGPX - https://www.visugpx.com">
  <metadata>
    <name>83-V-Vérignon           </name>
    <desc><![CDATA[83-V-Vérignon : les deux Chapelles - Pivoines ?
]]></desc>
  </metadata>
  <trk>
    <name><![CDATA[11 mars 2019]]></name>
    <cmt><![CDATA[Verignon reco]]></cmt>
    <desc><![CDATA[comment ...]]></desc>
    <trkseg>
      <trkpt lat="43.65372" lon="6.27376">
        <ele>885</ele>
        <time>2019-03-11T13:19:05Z</time>
      </trkpt>
      <trkpt lat="43.65364" lon="6.27376">
        <ele>881</ele>
        <time>2019-03-11T13:19:06Z</time>
      </trkpt>
      <trkpt lat="43.65355" lon="6.27372">
        <ele>861</ele>
        <time>2019-03-11T13:19:08Z</time>
      </trkpt>
      <trkpt lat="43.65347" lon="6.27376">
        <ele>849</ele>
        <time>2019-03-11T13:19:34Z</time>
      </trkpt>
      <trkpt lat="43.65342" lon="6.27364">
        <ele>849</ele>
        <time>2019-03-11T13:19:43Z</time>
      </trkpt>
      <trkpt lat="43.65337" lon="6.27351">
        <ele>851</ele>
        <time>2019-03-11T13:19:56Z</time>
      </trkpt>
      <trkpt lat="43.65332" lon="6.2734">
        <ele>851</ele>
        <time>2019-03-11T13:20:04Z</time>
      </trkpt>
      <trkpt lat="43.65336" lon="6.27328">
        <ele>848</ele>
        <time>2019-03-11T13:20:45Z</time>
      </trkpt>
      <trkpt lat="43.6533" lon="6.2732">
        <ele>848</ele>
        <time>2019-03-11T13:21:04Z</time>
      </trkpt>
      <trkpt lat="43.65334" lon="6.27297">
        <ele>849</ele>
        <time>2019-03-11T13:21:17Z</time>
      </trkpt>
      <trkpt lat="43.65337" lon="6.27286">
        <ele>850</ele>
        <time>2019-03-11T13:21:23Z</time>
      </trkpt>
      <trkpt lat="43.65341" lon="6.27276">
        <ele>850</ele>
        <time>2019-03-11T13:21:28Z</time>
      </trkpt>
      <trkpt lat="43.6535" lon="6.27272">
        <ele>851</ele>
        <time>2019-03-11T13:21:35Z</time>
      </trkpt>
      <trkpt lat="43.65358" lon="6.27275">
        <ele>850</ele>
        <time>2019-03-11T13:21:41Z</time>
      </trkpt>
      <trkpt lat="43.65364" lon="6.27266">
        <ele>849</ele>
        <time>2019-03-11T13:22:06Z</time>
      </trkpt>
      <trkpt lat="43.65358" lon="6.27231">
        <ele>849</ele>
        <time>2019-03-11T13:22:32Z</time>
      </trkpt>
      <trkpt lat="43.6536" lon="6.2722">
        <ele>848</ele>
        <time>2019-03-11T13:22:38Z</time>
      </trkpt>
      <trkpt lat="43.65363" lon="6.27209">
        <ele>847</ele>
        <time>2019-03-11T13:22:46Z</time>
      </trkpt>
      <trkpt lat="43.65368" lon="6.27198">
        <ele>846</ele>
        <time>2019-03-11T13:22:52Z</time>
      </trkpt>
      <trkpt lat="43.65373" lon="6.27186">
        <ele>847</ele>
        <time>2019-03-11T13:22:58Z</time>
      </trkpt>
      <trkpt lat="43.65382" lon="6.27174">
        <ele>849</ele>
        <time>2019-03-11T13:23:04Z</time>
      </trkpt>
      <trkpt lat="43.65383" lon="6.27161">
        <ele>849</ele>
        <time>2019-03-11T13:23:12Z</time>
      </trkpt>
      <trkpt lat="43.65381" lon="6.27148">
        <ele>850</ele>
        <time>2019-03-11T13:23:19Z</time>
      </trkpt>
      <trkpt lat="43.6538" lon="6.27135">
        <ele>851</ele>
        <time>2019-03-11T13:23:27Z</time>
      </trkpt>
      <trkpt lat="43.65384" lon="6.27125">
        <ele>850</ele>
        <time>2019-03-11T13:23:36Z</time>
      </trkpt>
      <trkpt lat="43.65385" lon="6.27114">
        <ele>851</ele>
        <time>2019-03-11T13:23:45Z</time>
      </trkpt>
      <trkpt lat="43.65403" lon="6.27073">
        <ele>854</ele>
        <time>2019-03-11T13:24:13Z</time>
      </trkpt>
      <trkpt lat="43.65403" lon="6.27061">
        <ele>853</ele>
        <time>2019-03-11T13:24:25Z</time>
      </trkpt>
      <trkpt lat="43.65411" lon="6.27022">
        <ele>854</ele>
        <time>2019-03-11T13:24:56Z</time>
      </trkpt>
      <trkpt lat="43.65421" lon="6.27018">
        <ele>852</ele>
        <time>2019-03-11T13:24:59Z</time>
      </trkpt>
      <trkpt lat="43.65428" lon="6.26989">
        <ele>841</ele>
        <time>2019-03-11T13:25:18Z</time>
      </trkpt>
      <trkpt lat="43.65436" lon="6.26981">
        <ele>841</ele>
        <time>2019-03-11T13:25:24Z</time>
      </trkpt>
      <trkpt lat="43.65436" lon="6.26967">
        <ele>844</ele>
        <time>2019-03-11T13:25:30Z</time>
      </trkpt>
      <trkpt lat="43.65444" lon="6.26956">
        <ele>843</ele>
        <time>2019-03-11T13:25:36Z</time>
      </trkpt>
      <trkpt lat="43.65441" lon="6.26941">
        <ele>847</ele>
        <time>2019-03-11T13:25:45Z</time>
      </trkpt>
      <trkpt lat="43.65442" lon="6.26926">
        <ele>850</ele>
        <time>2019-03-11T13:25:53Z</time>
      </trkpt>
      <trkpt lat="43.6545" lon="6.26903">
        <ele>855</ele>
        <time>2019-03-11T13:26:09Z</time>
      </trkpt>
      <trkpt lat="43.65457" lon="6.26894">
        <ele>852</ele>
        <time>2019-03-11T13:26:17Z</time>
      </trkpt>
      <trkpt lat="43.65459" lon="6.26883">
        <ele>851</ele>
        <time>2019-03-11T13:26:24Z</time>
      </trkpt>
      <trkpt lat="43.65483" lon="6.26848">
        <ele>847</ele>
        <time>2019-03-11T13:26:52Z</time>
      </trkpt>
      <trkpt lat="43.65507" lon="6.26794">
        <ele>841</ele>
        <time>2019-03-11T13:27:26Z</time>
      </trkpt>
      <trkpt lat="43.65514" lon="6.26801">
        <ele>841</ele>
        <time>2019-03-11T13:28:00Z</time>
      </trkpt>
      <trkpt lat="43.65518" lon="6.26789">
        <ele>838</ele>
        <time>2019-03-11T13:28:46Z</time>
      </trkpt>
      <trkpt lat="43.65523" lon="6.26778">
        <ele>839</ele>
        <time>2019-03-11T13:28:50Z</time>
      </trkpt>
      <trkpt lat="43.65529" lon="6.26769">
        <ele>840</ele>
        <time>2019-03-11T13:28:55Z</time>
      </trkpt>
      <trkpt lat="43.65532" lon="6.26757">
        <ele>841</ele>
        <time>2019-03-11T13:29:06Z</time>
      </trkpt>
      <trkpt lat="43.65539" lon="6.26748">
        <ele>840</ele>
        <time>2019-03-11T13:29:14Z</time>
      </trkpt>
      <trkpt lat="43.65544" lon="6.26739">
        <ele>840</ele>
        <time>2019-03-11T13:29:45Z</time>
      </trkpt>
      <trkpt lat="43.6555" lon="6.2673">
        <ele>839</ele>
        <time>2019-03-11T13:29:50Z</time>
      </trkpt>
      <trkpt lat="43.65554" lon="6.26717">
        <ele>844</ele>
        <time>2019-03-11T13:30:19Z</time>
      </trkpt>
      <trkpt lat="43.65557" lon="6.26714">
        <ele>843</ele>
        <time>2019-03-11T13:30:56Z</time>
      </trkpt>
      <trkpt lat="43.65559" lon="6.26709">
        <ele>841</ele>
        <time>2019-03-11T13:31:00Z</time>
      </trkpt>
      <trkpt lat="43.6557" lon="6.26686">
        <ele>834</ele>
        <time>2019-03-11T13:31:14Z</time>
      </trkpt>
      <trkpt lat="43.65574" lon="6.26683">
        <ele>832</ele>
        <time>2019-03-11T13:31:18Z</time>
      </trkpt>
      <trkpt lat="43.65579" lon="6.26679">
        <ele>827</ele>
        <time>2019-03-11T13:31:23Z</time>
      </trkpt>
      <trkpt lat="43.65585" lon="6.26666">
        <ele>829</ele>
        <time>2019-03-11T13:31:30Z</time>
      </trkpt>
      <trkpt lat="43.65591" lon="6.26661">
        <ele>829</ele>
        <time>2019-03-11T13:31:35Z</time>
      </trkpt>
      <trkpt lat="43.65597" lon="6.26657">
        <ele>829</ele>
        <time>2019-03-11T13:31:40Z</time>
      </trkpt>
      <trkpt lat="43.65604" lon="6.2664">
        <ele>828</ele>
        <time>2019-03-11T13:31:48Z</time>
      </trkpt>
      <trkpt lat="43.65607" lon="6.26633">
        <ele>828</ele>
        <time>2019-03-11T13:31:53Z</time>
      </trkpt>
      <trkpt lat="43.65613" lon="6.2663">
        <ele>830</ele>
        <time>2019-03-11T13:31:56Z</time>
      </trkpt>
      <trkpt lat="43.65618" lon="6.2663">
        <ele>830</ele>
        <time>2019-03-11T13:32:02Z</time>
      </trkpt>
      <trkpt lat="43.65631" lon="6.26624">
        <ele>830</ele>
        <time>2019-03-11T13:32:12Z</time>
      </trkpt>
      <trkpt lat="43.65631" lon="6.26629">
        <ele>830</ele>
        <time>2019-03-11T13:32:33Z</time>
      </trkpt>
      <trkpt lat="43.65635" lon="6.26621">
        <ele>830</ele>
        <time>2019-03-11T13:32:37Z</time>
      </trkpt>
      <trkpt lat="43.65636" lon="6.26605">
        <ele>828</ele>
        <time>2019-03-11T13:32:42Z</time>
      </trkpt>
      <trkpt lat="43.65636" lon="6.26599">
        <ele>830</ele>
        <time>2019-03-11T13:32:52Z</time>
      </trkpt>
      <trkpt lat="43.65633" lon="6.26591">
        <ele>833</ele>
        <time>2019-03-11T13:32:57Z</time>
      </trkpt>
      <trkpt lat="43.65638" lon="6.26587">
        <ele>832</ele>
        <time>2019-03-11T13:33:02Z</time>
      </trkpt>
      <trkpt lat="43.6564" lon="6.26581">
        <ele>830</ele>
        <time>2019-03-11T13:33:07Z</time>
      </trkpt>
      <trkpt lat="43.65638" lon="6.26572">
        <ele>830</ele>
        <time>2019-03-11T13:33:12Z</time>
      </trkpt>
      <trkpt lat="43.65643" lon="6.26572">
        <ele>828</ele>
        <time>2019-03-11T13:33:16Z</time>
      </trkpt>
      <trkpt lat="43.65642" lon="6.26563">
        <ele>826</ele>
        <time>2019-03-11T13:33:21Z</time>
      </trkpt>
      <trkpt lat="43.65638" lon="6.26557">
        <ele>826</ele>
        <time>2019-03-11T13:33:27Z</time>
      </trkpt>
      <trkpt lat="43.65639" lon="6.26541">
        <ele>830</ele>
        <time>2019-03-11T13:33:38Z</time>
      </trkpt>
      <trkpt lat="43.65635" lon="6.26532">
        <ele>828</ele>
        <time>2019-03-11T13:33:54Z</time>
      </trkpt>
      <trkpt lat="43.65633" lon="6.26525">
        <ele>828</ele>
        <time>2019-03-11T13:33:59Z</time>
      </trkpt>
      <trkpt lat="43.65631" lon="6.26516">
        <ele>828</ele>
        <time>2019-03-11T13:34:03Z</time>
      </trkpt>
      <trkpt lat="43.65629" lon="6.2651">
        <ele>830</ele>
        <time>2019-03-11T13:34:09Z</time>
      </trkpt>
      <trkpt lat="43.65626" lon="6.26504">
        <ele>832</ele>
        <time>2019-03-11T13:34:13Z</time>
      </trkpt>
      <trkpt lat="43.65625" lon="6.26495">
        <ele>833</ele>
        <time>2019-03-11T13:34:18Z</time>
      </trkpt>
      <trkpt lat="43.65627" lon="6.26488">
        <ele>835</ele>
        <time>2019-03-11T13:34:23Z</time>
      </trkpt>
      <trkpt lat="43.65625" lon="6.26481">
        <ele>836</ele>
        <time>2019-03-11T13:34:30Z</time>
      </trkpt>
      <trkpt lat="43.65621" lon="6.26476">
        <ele>835</ele>
        <time>2019-03-11T13:34:40Z</time>
      </trkpt>
      <trkpt lat="43.65601" lon="6.26462">
        <ele>834</ele>
        <time>2019-03-11T13:35:01Z</time>
      </trkpt>
      <trkpt lat="43.65594" lon="6.26457">
        <ele>835</ele>
        <time>2019-03-11T13:35:07Z</time>
      </trkpt>
      <trkpt lat="43.65581" lon="6.26459">
        <ele>839</ele>
        <time>2019-03-11T13:35:19Z</time>
      </trkpt>
      <trkpt lat="43.65578" lon="6.26451">
        <ele>839</ele>
        <time>2019-03-11T13:35:24Z</time>
      </trkpt>
      <trkpt lat="43.65569" lon="6.26448">
        <ele>841</ele>
        <time>2019-03-11T13:35:34Z</time>
      </trkpt>
      <trkpt lat="43.65562" lon="6.26444">
        <ele>842</ele>
        <time>2019-03-11T13:35:40Z</time>
      </trkpt>
      <trkpt lat="43.65553" lon="6.26441">
        <ele>839</ele>
        <time>2019-03-11T13:35:48Z</time>
      </trkpt>
      <trkpt lat="43.65546" lon="6.26435">
        <ele>839</ele>
        <time>2019-03-11T13:35:55Z</time>
      </trkpt>
      <trkpt lat="43.65532" lon="6.26423">
        <ele>843</ele>
        <time>2019-03-11T13:36:10Z</time>
      </trkpt>
      <trkpt lat="43.65523" lon="6.26417">
        <ele>847</ele>
        <time>2019-03-11T13:36:18Z</time>
      </trkpt>
      <trkpt lat="43.65508" lon="6.26405">
        <ele>846</ele>
        <time>2019-03-11T13:36:38Z</time>
      </trkpt>
      <trkpt lat="43.65493" lon="6.26395">
        <ele>849</ele>
        <time>2019-03-11T13:36:55Z</time>
      </trkpt>
      <trkpt lat="43.65485" lon="6.26388">
        <ele>852</ele>
        <time>2019-03-11T13:37:03Z</time>
      </trkpt>
      <trkpt lat="43.65479" lon="6.26379">
        <ele>851</ele>
        <time>2019-03-11T13:37:10Z</time>
      </trkpt>
      <trkpt lat="43.65477" lon="6.26369">
        <ele>811</ele>
        <time>2019-03-11T13:37:19Z</time>
      </trkpt>
      <trkpt lat="43.65472" lon="6.26359">
        <ele>826</ele>
        <time>2019-03-11T13:37:27Z</time>
      </trkpt>
      <trkpt lat="43.65467" lon="6.26351">
        <ele>852</ele>
        <time>2019-03-11T13:37:37Z</time>
      </trkpt>
      <trkpt lat="43.6546" lon="6.26345">
        <ele>858</ele>
        <time>2019-03-11T13:37:48Z</time>
      </trkpt>
      <trkpt lat="43.65434" lon="6.26325">
        <ele>861</ele>
        <time>2019-03-11T13:38:15Z</time>
      </trkpt>
      <trkpt lat="43.65429" lon="6.26316">
        <ele>862</ele>
        <time>2019-03-11T13:38:22Z</time>
      </trkpt>
      <trkpt lat="43.65421" lon="6.26308">
        <ele>861</ele>
        <time>2019-03-11T13:38:29Z</time>
      </trkpt>
      <trkpt lat="43.65421" lon="6.26295">
        <ele>859</ele>
        <time>2019-03-11T13:38:37Z</time>
      </trkpt>
      <trkpt lat="43.65426" lon="6.26284">
        <ele>857</ele>
        <time>2019-03-11T13:38:45Z</time>
      </trkpt>
      <trkpt lat="43.65424" lon="6.26273">
        <ele>857</ele>
        <time>2019-03-11T13:38:53Z</time>
      </trkpt>
      <trkpt lat="43.65422" lon="6.26261">
        <ele>860</ele>
        <time>2019-03-11T13:39:01Z</time>
      </trkpt>
      <trkpt lat="43.65421" lon="6.26249">
        <ele>863</ele>
        <time>2019-03-11T13:39:12Z</time>
      </trkpt>
      <trkpt lat="43.65417" lon="6.26239">
        <ele>870</ele>
        <time>2019-03-11T13:39:21Z</time>
      </trkpt>
      <trkpt lat="43.65416" lon="6.26228">
        <ele>872</ele>
        <time>2019-03-11T13:39:36Z</time>
      </trkpt>
      <trkpt lat="43.65418" lon="6.26204">
        <ele>871</ele>
        <time>2019-03-11T13:40:00Z</time>
      </trkpt>
      <trkpt lat="43.65414" lon="6.26193">
        <ele>876</ele>
        <time>2019-03-11T13:40:13Z</time>
      </trkpt>
      <trkpt lat="43.65401" lon="6.26177">
        <ele>877</ele>
        <time>2019-03-11T13:40:36Z</time>
      </trkpt>
      <trkpt lat="43.65397" lon="6.26167">
        <ele>880</ele>
        <time>2019-03-11T13:40:50Z</time>
      </trkpt>
      <trkpt lat="43.65392" lon="6.26164">
        <ele>880</ele>
        <time>2019-03-11T13:40:54Z</time>
      </trkpt>
      <trkpt lat="43.65391" lon="6.2616">
        <ele>880</ele>
        <time>2019-03-11T13:41:16Z</time>
      </trkpt>
      <trkpt lat="43.6539" lon="6.26148">
        <ele>882</ele>
        <time>2019-03-11T13:42:38Z</time>
      </trkpt>
      <trkpt lat="43.65395" lon="6.26139">
        <ele>886</ele>
        <time>2019-03-11T13:42:46Z</time>
      </trkpt>
      <trkpt lat="43.65394" lon="6.26128">
        <ele>888</ele>
        <time>2019-03-11T13:42:54Z</time>
      </trkpt>
      <trkpt lat="43.65404" lon="6.26106">
        <ele>890</ele>
        <time>2019-03-11T13:43:14Z</time>
      </trkpt>
      <trkpt lat="43.65408" lon="6.26093">
        <ele>894</ele>
        <time>2019-03-11T13:43:21Z</time>
      </trkpt>
      <trkpt lat="43.6541" lon="6.26081">
        <ele>896</ele>
        <time>2019-03-11T13:43:29Z</time>
      </trkpt>
      <trkpt lat="43.65411" lon="6.26069">
        <ele>897</ele>
        <time>2019-03-11T13:43:37Z</time>
      </trkpt>
      <trkpt lat="43.65413" lon="6.26057">
        <ele>880</ele>
        <time>2019-03-11T13:43:49Z</time>
      </trkpt>
      <trkpt lat="43.6541" lon="6.26047">
        <ele>883</ele>
        <time>2019-03-11T13:43:56Z</time>
      </trkpt>
      <trkpt lat="43.65408" lon="6.26034">
        <ele>889</ele>
        <time>2019-03-11T13:44:06Z</time>
      </trkpt>
      <trkpt lat="43.654" lon="6.26026">
        <ele>896</ele>
        <time>2019-03-11T13:44:13Z</time>
      </trkpt>
      <trkpt lat="43.65397" lon="6.26016">
        <ele>902</ele>
        <time>2019-03-11T13:44:22Z</time>
      </trkpt>
      <trkpt lat="43.65388" lon="6.26009">
        <ele>904</ele>
        <time>2019-03-11T13:44:30Z</time>
      </trkpt>
      <trkpt lat="43.65379" lon="6.2599">
        <ele>904</ele>
        <time>2019-03-11T13:44:48Z</time>
      </trkpt>
      <trkpt lat="43.65364" lon="6.25976">
        <ele>906</ele>
        <time>2019-03-11T13:45:03Z</time>
      </trkpt>
      <trkpt lat="43.65358" lon="6.25966">
        <ele>906</ele>
        <time>2019-03-11T13:45:10Z</time>
      </trkpt>
      <trkpt lat="43.65351" lon="6.2596">
        <ele>907</ele>
        <time>2019-03-11T13:45:16Z</time>
      </trkpt>
      <trkpt lat="43.65344" lon="6.25955">
        <ele>907</ele>
        <time>2019-03-11T13:45:21Z</time>
      </trkpt>
      <trkpt lat="43.65335" lon="6.25948">
        <ele>904</ele>
        <time>2019-03-11T13:45:28Z</time>
      </trkpt>
      <trkpt lat="43.65327" lon="6.2594">
        <ele>901</ele>
        <time>2019-03-11T13:45:35Z</time>
      </trkpt>
      <trkpt lat="43.65319" lon="6.25931">
        <ele>902</ele>
        <time>2019-03-11T13:45:41Z</time>
      </trkpt>
      <trkpt lat="43.6531" lon="6.25923">
        <ele>902</ele>
        <time>2019-03-11T13:45:50Z</time>
      </trkpt>
      <trkpt lat="43.6529" lon="6.25898">
        <ele>905</ele>
        <time>2019-03-11T13:46:18Z</time>
      </trkpt>
      <trkpt lat="43.65282" lon="6.2589">
        <ele>907</ele>
        <time>2019-03-11T13:46:26Z</time>
      </trkpt>
      <trkpt lat="43.65273" lon="6.25883">
        <ele>870</ele>
        <time>2019-03-11T13:46:35Z</time>
      </trkpt>
      <trkpt lat="43.65243" lon="6.25857">
        <ele>909</ele>
        <time>2019-03-11T13:47:06Z</time>
      </trkpt>
      <trkpt lat="43.65236" lon="6.25848">
        <ele>907</ele>
        <time>2019-03-11T13:47:15Z</time>
      </trkpt>
      <trkpt lat="43.65233" lon="6.25835">
        <ele>906</ele>
        <time>2019-03-11T13:47:24Z</time>
      </trkpt>
      <trkpt lat="43.65237" lon="6.25823">
        <ele>910</ele>
        <time>2019-03-11T13:47:34Z</time>
      </trkpt>
      <trkpt lat="43.65238" lon="6.2581">
        <ele>912</ele>
        <time>2019-03-11T13:47:45Z</time>
      </trkpt>
      <trkpt lat="43.6524" lon="6.25798">
        <ele>914</ele>
        <time>2019-03-11T13:47:51Z</time>
      </trkpt>
      <trkpt lat="43.65244" lon="6.25789">
        <ele>915</ele>
        <time>2019-03-11T13:48:01Z</time>
      </trkpt>
      <trkpt lat="43.65251" lon="6.25782">
        <ele>918</ele>
        <time>2019-03-11T13:48:07Z</time>
      </trkpt>
      <trkpt lat="43.65258" lon="6.25774">
        <ele>919</ele>
        <time>2019-03-11T13:48:15Z</time>
      </trkpt>
      <trkpt lat="43.65266" lon="6.2577">
        <ele>922</ele>
        <time>2019-03-11T13:48:21Z</time>
      </trkpt>
      <trkpt lat="43.65272" lon="6.25763">
        <ele>925</ele>
        <time>2019-03-11T13:48:30Z</time>
      </trkpt>
      <trkpt lat="43.65293" lon="6.25738">
        <ele>929</ele>
        <time>2019-03-11T13:49:01Z</time>
      </trkpt>
      <trkpt lat="43.65298" lon="6.2573">
        <ele>929</ele>
        <time>2019-03-11T13:49:19Z</time>
      </trkpt>
      <trkpt lat="43.65301" lon="6.25726">
        <ele>929</ele>
        <time>2019-03-11T13:49:23Z</time>
      </trkpt>
      <trkpt lat="43.65305" lon="6.25714">
        <ele>928</ele>
        <time>2019-03-11T13:49:38Z</time>
      </trkpt>
      <trkpt lat="43.65304" lon="6.2571">
        <ele>927</ele>
        <time>2019-03-11T13:49:42Z</time>
      </trkpt>
      <trkpt lat="43.65305" lon="6.25703">
        <ele>927</ele>
        <time>2019-03-11T13:49:49Z</time>
      </trkpt>
      <trkpt lat="43.65302" lon="6.25697">
        <ele>928</ele>
        <time>2019-03-11T13:49:54Z</time>
      </trkpt>
      <trkpt lat="43.65304" lon="6.2569">
        <ele>930</ele>
        <time>2019-03-11T13:50:01Z</time>
      </trkpt>
      <trkpt lat="43.65302" lon="6.2568">
        <ele>931</ele>
        <time>2019-03-11T13:50:07Z</time>
      </trkpt>
      <trkpt lat="43.65301" lon="6.25673">
        <ele>933</ele>
        <time>2019-03-11T13:50:14Z</time>
      </trkpt>
      <trkpt lat="43.65291" lon="6.25663">
        <ele>929</ele>
        <time>2019-03-11T13:50:23Z</time>
      </trkpt>
      <trkpt lat="43.65286" lon="6.25645">
        <ele>931</ele>
        <time>2019-03-11T13:50:35Z</time>
      </trkpt>
      <trkpt lat="43.65286" lon="6.25637">
        <ele>933</ele>
        <time>2019-03-11T13:50:40Z</time>
      </trkpt>
      <trkpt lat="43.65288" lon="6.25631">
        <ele>933</ele>
        <time>2019-03-11T13:50:57Z</time>
      </trkpt>
      <trkpt lat="43.65284" lon="6.25627">
        <ele>933</ele>
        <time>2019-03-11T13:51:00Z</time>
      </trkpt>
      <trkpt lat="43.65286" lon="6.2562">
        <ele>932</ele>
        <time>2019-03-11T13:51:06Z</time>
      </trkpt>
      <trkpt lat="43.65287" lon="6.25612">
        <ele>931</ele>
        <time>2019-03-11T13:51:10Z</time>
      </trkpt>
      <trkpt lat="43.65295" lon="6.25604">
        <ele>932</ele>
        <time>2019-03-11T13:51:18Z</time>
      </trkpt>
      <trkpt lat="43.65298" lon="6.25598">
        <ele>935</ele>
        <time>2019-03-11T13:51:24Z</time>
      </trkpt>
      <trkpt lat="43.65303" lon="6.25595">
        <ele>934</ele>
        <time>2019-03-11T13:51:26Z</time>
      </trkpt>
      <trkpt lat="43.65306" lon="6.25589">
        <ele>937</ele>
        <time>2019-03-11T13:51:31Z</time>
      </trkpt>
      <trkpt lat="43.65312" lon="6.25589">
        <ele>938</ele>
        <time>2019-03-11T13:51:35Z</time>
      </trkpt>
      <trkpt lat="43.65313" lon="6.25583">
        <ele>938</ele>
        <time>2019-03-11T13:51:38Z</time>
      </trkpt>
      <trkpt lat="43.65314" lon="6.25576">
        <ele>940</ele>
        <time>2019-03-11T13:51:43Z</time>
      </trkpt>
      <trkpt lat="43.65313" lon="6.25569">
        <ele>941</ele>
        <time>2019-03-11T13:51:46Z</time>
      </trkpt>
      <trkpt lat="43.65317" lon="6.25565">
        <ele>943</ele>
        <time>2019-03-11T13:51:53Z</time>
      </trkpt>
      <trkpt lat="43.65319" lon="6.2556">
        <ele>941</ele>
        <time>2019-03-11T13:51:59Z</time>
      </trkpt>
      <trkpt lat="43.65324" lon="6.25522">
        <ele>945</ele>
        <time>2019-03-11T13:52:23Z</time>
      </trkpt>
      <trkpt lat="43.65321" lon="6.25519">
        <ele>945</ele>
        <time>2019-03-11T13:52:32Z</time>
      </trkpt>
      <trkpt lat="43.65321" lon="6.25506">
        <ele>948</ele>
        <time>2019-03-11T13:52:59Z</time>
      </trkpt>
      <trkpt lat="43.6532" lon="6.255">
        <ele>949</ele>
        <time>2019-03-11T13:53:05Z</time>
      </trkpt>
      <trkpt lat="43.65321" lon="6.25493">
        <ele>948</ele>
        <time>2019-03-11T13:53:44Z</time>
      </trkpt>
      <trkpt lat="43.65322" lon="6.25487">
        <ele>949</ele>
        <time>2019-03-11T13:53:50Z</time>
      </trkpt>
      <trkpt lat="43.65324" lon="6.2548">
        <ele>946</ele>
        <time>2019-03-11T13:53:54Z</time>
      </trkpt>
      <trkpt lat="43.65323" lon="6.25475">
        <ele>945</ele>
        <time>2019-03-11T13:53:58Z</time>
      </trkpt>
      <trkpt lat="43.65322" lon="6.25468">
        <ele>946</ele>
        <time>2019-03-11T13:54:00Z</time>
      </trkpt>
      <trkpt lat="43.6532" lon="6.25454">
        <ele>946</ele>
        <time>2019-03-11T13:54:07Z</time>
      </trkpt>
      <trkpt lat="43.65319" lon="6.25438">
        <ele>948</ele>
        <time>2019-03-11T13:54:17Z</time>
      </trkpt>
      <trkpt lat="43.65324" lon="6.25422">
        <ele>947</ele>
        <time>2019-03-11T13:54:29Z</time>
      </trkpt>
      <trkpt lat="43.65323" lon="6.25417">
        <ele>948</ele>
        <time>2019-03-11T13:54:32Z</time>
      </trkpt>
      <trkpt lat="43.65324" lon="6.25414">
        <ele>948</ele>
        <time>2019-03-11T13:54:35Z</time>
      </trkpt>
      <trkpt lat="43.65324" lon="6.25409">
        <ele>950</ele>
        <time>2019-03-11T13:54:39Z</time>
      </trkpt>
      <trkpt lat="43.65325" lon="6.25404">
        <ele>949</ele>
        <time>2019-03-11T13:54:42Z</time>
      </trkpt>
      <trkpt lat="43.65324" lon="6.25393">
        <ele>949</ele>
        <time>2019-03-11T13:54:48Z</time>
      </trkpt>
      <trkpt lat="43.65323" lon="6.25388">
        <ele>952</ele>
        <time>2019-03-11T13:54:51Z</time>
      </trkpt>
      <trkpt lat="43.65324" lon="6.25384">
        <ele>953</ele>
        <time>2019-03-11T13:54:53Z</time>
      </trkpt>
      <trkpt lat="43.65323" lon="6.2538">
        <ele>955</ele>
        <time>2019-03-11T13:54:57Z</time>
      </trkpt>
      <trkpt lat="43.65325" lon="6.25376">
        <ele>956</ele>
        <time>2019-03-11T13:55:01Z</time>
      </trkpt>
      <trkpt lat="43.65324" lon="6.2537">
        <ele>955</ele>
        <time>2019-03-11T13:55:05Z</time>
      </trkpt>
      <trkpt lat="43.65328" lon="6.25358">
        <ele>953</ele>
        <time>2019-03-11T13:55:15Z</time>
      </trkpt>
      <trkpt lat="43.65325" lon="6.2535">
        <ele>953</ele>
        <time>2019-03-11T13:55:24Z</time>
      </trkpt>
      <trkpt lat="43.65325" lon="6.25344">
        <ele>953</ele>
        <time>2019-03-11T13:55:29Z</time>
      </trkpt>
      <trkpt lat="43.65329" lon="6.2534">
        <ele>952</ele>
        <time>2019-03-11T13:55:33Z</time>
      </trkpt>
      <trkpt lat="43.65332" lon="6.25333">
        <ele>958</ele>
        <time>2019-03-11T13:55:45Z</time>
      </trkpt>
      <trkpt lat="43.65343" lon="6.25283">
        <ele>956</ele>
        <time>2019-03-11T13:56:24Z</time>
      </trkpt>
      <trkpt lat="43.65345" lon="6.25279">
        <ele>956</ele>
        <time>2019-03-11T13:56:28Z</time>
      </trkpt>
      <trkpt lat="43.65345" lon="6.25275">
        <ele>957</ele>
        <time>2019-03-11T13:56:31Z</time>
      </trkpt>
      <trkpt lat="43.6535" lon="6.25264">
        <ele>960</ele>
        <time>2019-03-11T13:56:50Z</time>
      </trkpt>
      <trkpt lat="43.65357" lon="6.25255">
        <ele>963</ele>
        <time>2019-03-11T13:57:03Z</time>
      </trkpt>
      <trkpt lat="43.65356" lon="6.25242">
        <ele>964</ele>
        <time>2019-03-11T13:57:27Z</time>
      </trkpt>
      <trkpt lat="43.65358" lon="6.2523">
        <ele>967</ele>
        <time>2019-03-11T13:57:36Z</time>
      </trkpt>
      <trkpt lat="43.65359" lon="6.25217">
        <ele>968</ele>
        <time>2019-03-11T13:57:44Z</time>
      </trkpt>
      <trkpt lat="43.65362" lon="6.25206">
        <ele>971</ele>
        <time>2019-03-11T13:57:50Z</time>
      </trkpt>
      <trkpt lat="43.65367" lon="6.25196">
        <ele>972</ele>
        <time>2019-03-11T13:57:58Z</time>
      </trkpt>
      <trkpt lat="43.65372" lon="6.25187">
        <ele>894</ele>
        <time>2019-03-11T13:58:06Z</time>
      </trkpt>
      <trkpt lat="43.65379" lon="6.2518">
        <ele>942</ele>
        <time>2019-03-11T13:58:24Z</time>
      </trkpt>
      <trkpt lat="43.65381" lon="6.25168">
        <ele>965</ele>
        <time>2019-03-11T13:58:32Z</time>
      </trkpt>
      <trkpt lat="43.65376" lon="6.25133">
        <ele>969</ele>
        <time>2019-03-11T13:58:58Z</time>
      </trkpt>
      <trkpt lat="43.6537" lon="6.25124">
        <ele>971</ele>
        <time>2019-03-11T13:59:08Z</time>
      </trkpt>
      <trkpt lat="43.65363" lon="6.25115">
        <ele>972</ele>
        <time>2019-03-11T13:59:16Z</time>
      </trkpt>
      <trkpt lat="43.65353" lon="6.2512">
        <ele>976</ele>
        <time>2019-03-11T13:59:25Z</time>
      </trkpt>
      <trkpt lat="43.65346" lon="6.25114">
        <ele>977</ele>
        <time>2019-03-11T13:59:36Z</time>
      </trkpt>
      <trkpt lat="43.65345" lon="6.2511">
        <ele>981</ele>
        <time>2019-03-11T14:00:35Z</time>
      </trkpt>
      <trkpt lat="43.65345" lon="6.2511">
        <ele>981</ele>
        <time>2019-03-11T14:00:52Z</time>
      </trkpt>
      <trkpt lat="43.65345" lon="6.25111">
        <ele>979</ele>
        <time>2019-03-11T14:02:11Z</time>
      </trkpt>
      <trkpt lat="43.65347" lon="6.2511">
        <ele>979</ele>
        <time>2019-03-11T14:03:37Z</time>
      </trkpt>
      <trkpt lat="43.65353" lon="6.25112">
        <ele>978</ele>
        <time>2019-03-11T14:03:43Z</time>
      </trkpt>
      <trkpt lat="43.65358" lon="6.25112">
        <ele>974</ele>
        <time>2019-03-11T14:03:50Z</time>
      </trkpt>
      <trkpt lat="43.65367" lon="6.25104">
        <ele>970</ele>
        <time>2019-03-11T14:03:59Z</time>
      </trkpt>
      <trkpt lat="43.65371" lon="6.25102">
        <ele>972</ele>
        <time>2019-03-11T14:04:02Z</time>
      </trkpt>
      <trkpt lat="43.65367" lon="6.25094">
        <ele>974</ele>
        <time>2019-03-11T14:04:07Z</time>
      </trkpt>
      <trkpt lat="43.65369" lon="6.25088">
        <ele>975</ele>
        <time>2019-03-11T14:04:14Z</time>
      </trkpt>
      <trkpt lat="43.65368" lon="6.2508">
        <ele>975</ele>
        <time>2019-03-11T14:04:20Z</time>
      </trkpt>
      <trkpt lat="43.65369" lon="6.25074">
        <ele>976</ele>
        <time>2019-03-11T14:04:24Z</time>
      </trkpt>
      <trkpt lat="43.65372" lon="6.2507">
        <ele>976</ele>
        <time>2019-03-11T14:04:27Z</time>
      </trkpt>
      <trkpt lat="43.6537" lon="6.25063">
        <ele>978</ele>
        <time>2019-03-11T14:04:30Z</time>
      </trkpt>
      <trkpt lat="43.6537" lon="6.25051">
        <ele>978</ele>
        <time>2019-03-11T14:04:38Z</time>
      </trkpt>
      <trkpt lat="43.65371" lon="6.25041">
        <ele>981</ele>
        <time>2019-03-11T14:04:45Z</time>
      </trkpt>
      <trkpt lat="43.65364" lon="6.25018">
        <ele>983</ele>
        <time>2019-03-11T14:05:06Z</time>
      </trkpt>
      <trkpt lat="43.65368" lon="6.25014">
        <ele>982</ele>
        <time>2019-03-11T14:05:08Z</time>
      </trkpt>
      <trkpt lat="43.65368" lon="6.25009">
        <ele>981</ele>
        <time>2019-03-11T14:05:10Z</time>
      </trkpt>
      <trkpt lat="43.65369" lon="6.25003">
        <ele>981</ele>
        <time>2019-03-11T14:05:15Z</time>
      </trkpt>
      <trkpt lat="43.65369" lon="6.24995">
        <ele>980</ele>
        <time>2019-03-11T14:05:19Z</time>
      </trkpt>
      <trkpt lat="43.65367" lon="6.24987">
        <ele>980</ele>
        <time>2019-03-11T14:05:25Z</time>
      </trkpt>
      <trkpt lat="43.65368" lon="6.24979">
        <ele>979</ele>
        <time>2019-03-11T14:05:32Z</time>
      </trkpt>
      <trkpt lat="43.65366" lon="6.24972">
        <ele>980</ele>
        <time>2019-03-11T14:05:38Z</time>
      </trkpt>
      <trkpt lat="43.6536" lon="6.24968">
        <ele>853</ele>
        <time>2019-03-11T14:05:43Z</time>
      </trkpt>
      <trkpt lat="43.65362" lon="6.24959">
        <ele>898</ele>
        <time>2019-03-11T14:05:54Z</time>
      </trkpt>
      <trkpt lat="43.65358" lon="6.24956">
        <ele>901</ele>
        <time>2019-03-11T14:06:41Z</time>
      </trkpt>
      <trkpt lat="43.65353" lon="6.24963">
        <ele>973</ele>
        <time>2019-03-11T14:06:48Z</time>
      </trkpt>
      <trkpt lat="43.65351" lon="6.24963">
        <ele>979</ele>
        <time>2019-03-11T14:06:51Z</time>
      </trkpt>
      <trkpt lat="43.65348" lon="6.24963">
        <ele>987</ele>
        <time>2019-03-11T14:06:59Z</time>
      </trkpt>
      <trkpt lat="43.65348" lon="6.24958">
        <ele>989</ele>
        <time>2019-03-11T14:07:30Z</time>
      </trkpt>
      <trkpt lat="43.65348" lon="6.24959">
        <ele>987</ele>
        <time>2019-03-11T14:08:16Z</time>
      </trkpt>
      <trkpt lat="43.65351" lon="6.24961">
        <ele>990</ele>
        <time>2019-03-11T14:08:24Z</time>
      </trkpt>
      <trkpt lat="43.65354" lon="6.24958">
        <ele>992</ele>
        <time>2019-03-11T14:08:29Z</time>
      </trkpt>
      <trkpt lat="43.65357" lon="6.24958">
        <ele>990</ele>
        <time>2019-03-11T14:08:35Z</time>
      </trkpt>
      <trkpt lat="43.65359" lon="6.24954">
        <ele>988</ele>
        <time>2019-03-11T14:08:38Z</time>
      </trkpt>
      <trkpt lat="43.65362" lon="6.2495">
        <ele>987</ele>
        <time>2019-03-11T14:08:45Z</time>
      </trkpt>
      <trkpt lat="43.65362" lon="6.24945">
        <ele>988</ele>
        <time>2019-03-11T14:08:49Z</time>
      </trkpt>
      <trkpt lat="43.65365" lon="6.2494">
        <ele>987</ele>
        <time>2019-03-11T14:08:56Z</time>
      </trkpt>
      <trkpt lat="43.65364" lon="6.24937">
        <ele>993</ele>
        <time>2019-03-11T14:09:15Z</time>
      </trkpt>
      <trkpt lat="43.65363" lon="6.24935">
        <ele>993</ele>
        <time>2019-03-11T14:09:49Z</time>
      </trkpt>
      <trkpt lat="43.65368" lon="6.24935">
        <ele>993</ele>
        <time>2019-03-11T14:10:00Z</time>
      </trkpt>
      <trkpt lat="43.6537" lon="6.24938">
        <ele>992</ele>
        <time>2019-03-11T14:10:05Z</time>
      </trkpt>
      <trkpt lat="43.65365" lon="6.24937">
        <ele>992</ele>
        <time>2019-03-11T14:10:14Z</time>
      </trkpt>
      <trkpt lat="43.65366" lon="6.24932">
        <ele>972</ele>
        <time>2019-03-11T14:10:50Z</time>
      </trkpt>
      <trkpt lat="43.65362" lon="6.24933">
        <ele>971</ele>
        <time>2019-03-11T14:11:33Z</time>
      </trkpt>
      <trkpt lat="43.65359" lon="6.24939">
        <ele>991</ele>
        <time>2019-03-11T14:11:42Z</time>
      </trkpt>
      <trkpt lat="43.65362" lon="6.24942">
        <ele>990</ele>
        <time>2019-03-11T14:11:44Z</time>
      </trkpt>
      <trkpt lat="43.65362" lon="6.24955">
        <ele>990</ele>
        <time>2019-03-11T14:12:39Z</time>
      </trkpt>
      <trkpt lat="43.65362" lon="6.24968">
        <ele>990</ele>
        <time>2019-03-11T14:12:46Z</time>
      </trkpt>
      <trkpt lat="43.65361" lon="6.2498">
        <ele>989</ele>
        <time>2019-03-11T14:12:54Z</time>
      </trkpt>
      <trkpt lat="43.65364" lon="6.24991">
        <ele>987</ele>
        <time>2019-03-11T14:13:05Z</time>
      </trkpt>
      <trkpt lat="43.65364" lon="6.25002">
        <ele>986</ele>
        <time>2019-03-11T14:13:28Z</time>
      </trkpt>
      <trkpt lat="43.65366" lon="6.25029">
        <ele>982</ele>
        <time>2019-03-11T14:13:50Z</time>
      </trkpt>
      <trkpt lat="43.65368" lon="6.25038">
        <ele>982</ele>
        <time>2019-03-11T14:13:54Z</time>
      </trkpt>
      <trkpt lat="43.6537" lon="6.25045">
        <ele>981</ele>
        <time>2019-03-11T14:14:01Z</time>
      </trkpt>
      <trkpt lat="43.65364" lon="6.25045">
        <ele>976</ele>
        <time>2019-03-11T14:14:09Z</time>
      </trkpt>
      <trkpt lat="43.65366" lon="6.25045">
        <ele>945</ele>
        <time>2019-03-11T14:14:42Z</time>
      </trkpt>
      <trkpt lat="43.65368" lon="6.25051">
        <ele>951</ele>
        <time>2019-03-11T14:14:50Z</time>
      </trkpt>
      <trkpt lat="43.65364" lon="6.25063">
        <ele>959</ele>
        <time>2019-03-11T14:14:59Z</time>
      </trkpt>
      <trkpt lat="43.65365" lon="6.25068">
        <ele>962</ele>
        <time>2019-03-11T14:15:07Z</time>
      </trkpt>
      <trkpt lat="43.65365" lon="6.25075">
        <ele>964</ele>
        <time>2019-03-11T14:15:11Z</time>
      </trkpt>
      <trkpt lat="43.6536" lon="6.2508">
        <ele>965</ele>
        <time>2019-03-11T14:15:14Z</time>
      </trkpt>
      <trkpt lat="43.65363" lon="6.25095">
        <ele>968</ele>
        <time>2019-03-11T14:15:23Z</time>
      </trkpt>
      <trkpt lat="43.65364" lon="6.25102">
        <ele>967</ele>
        <time>2019-03-11T14:15:28Z</time>
      </trkpt>
      <trkpt lat="43.65364" lon="6.25109">
        <ele>969</ele>
        <time>2019-03-11T14:15:31Z</time>
      </trkpt>
      <trkpt lat="43.65368" lon="6.25117">
        <ele>970</ele>
        <time>2019-03-11T14:15:39Z</time>
      </trkpt>
      <trkpt lat="43.65371" lon="6.25122">
        <ele>975</ele>
        <time>2019-03-11T14:15:42Z</time>
      </trkpt>
      <trkpt lat="43.6537" lon="6.25129">
        <ele>975</ele>
        <time>2019-03-11T14:15:49Z</time>
      </trkpt>
      <trkpt lat="43.65372" lon="6.25135">
        <ele>972</ele>
        <time>2019-03-11T14:15:56Z</time>
      </trkpt>
      <trkpt lat="43.65371" lon="6.25142">
        <ele>970</ele>
        <time>2019-03-11T14:16:05Z</time>
      </trkpt>
      <trkpt lat="43.65373" lon="6.25148">
        <ele>969</ele>
        <time>2019-03-11T14:16:11Z</time>
      </trkpt>
      <trkpt lat="43.65371" lon="6.25156">
        <ele>968</ele>
        <time>2019-03-11T14:16:15Z</time>
      </trkpt>
      <trkpt lat="43.65374" lon="6.25164">
        <ele>968</ele>
        <time>2019-03-11T14:16:17Z</time>
      </trkpt>
      <trkpt lat="43.65377" lon="6.25171">
        <ele>965</ele>
        <time>2019-03-11T14:16:25Z</time>
      </trkpt>
      <trkpt lat="43.6538" lon="6.25176">
        <ele>969</ele>
        <time>2019-03-11T14:16:37Z</time>
      </trkpt>
      <trkpt lat="43.65377" lon="6.25178">
        <ele>971</ele>
        <time>2019-03-11T14:16:57Z</time>
      </trkpt>
      <trkpt lat="43.65379" lon="6.25181">
        <ele>971</ele>
        <time>2019-03-11T14:17:08Z</time>
      </trkpt>
      <trkpt lat="43.65381" lon="6.25185">
        <ele>976</ele>
        <time>2019-03-11T14:17:43Z</time>
      </trkpt>
      <trkpt lat="43.65378" lon="6.25187">
        <ele>976</ele>
        <time>2019-03-11T14:17:59Z</time>
      </trkpt>
      <trkpt lat="43.65376" lon="6.25194">
        <ele>977</ele>
        <time>2019-03-11T14:18:04Z</time>
      </trkpt>
      <trkpt lat="43.65371" lon="6.25193">
        <ele>976</ele>
        <time>2019-03-11T14:18:44Z</time>
      </trkpt>
      <trkpt lat="43.65366" lon="6.25195">
        <ele>971</ele>
        <time>2019-03-11T14:18:47Z</time>
      </trkpt>
      <trkpt lat="43.65362" lon="6.25198">
        <ele>970</ele>
        <time>2019-03-11T14:18:49Z</time>
      </trkpt>
      <trkpt lat="43.65354" lon="6.25216">
        <ele>970</ele>
        <time>2019-03-11T14:18:56Z</time>
      </trkpt>
      <trkpt lat="43.65351" lon="6.25222">
        <ele>969</ele>
        <time>2019-03-11T14:19:00Z</time>
      </trkpt>
      <trkpt lat="43.65348" lon="6.25227">
        <ele>966</ele>
        <time>2019-03-11T14:19:04Z</time>
      </trkpt>
      <trkpt lat="43.6535" lon="6.25237">
        <ele>966</ele>
        <time>2019-03-11T14:19:09Z</time>
      </trkpt>
      <trkpt lat="43.65351" lon="6.25243">
        <ele>967</ele>
        <time>2019-03-11T14:19:12Z</time>
      </trkpt>
      <trkpt lat="43.65353" lon="6.25247">
        <ele>968</ele>
        <time>2019-03-11T14:19:14Z</time>
      </trkpt>
      <trkpt lat="43.65352" lon="6.25252">
        <ele>970</ele>
        <time>2019-03-11T14:19:17Z</time>
      </trkpt>
      <trkpt lat="43.6535" lon="6.25254">
        <ele>969</ele>
        <time>2019-03-11T14:19:20Z</time>
      </trkpt>
      <trkpt lat="43.65348" lon="6.25258">
        <ele>970</ele>
        <time>2019-03-11T14:19:24Z</time>
      </trkpt>
      <trkpt lat="43.65349" lon="6.25262">
        <ele>969</ele>
        <time>2019-03-11T14:19:28Z</time>
      </trkpt>
      <trkpt lat="43.65342" lon="6.25286">
        <ele>965</ele>
        <time>2019-03-11T14:19:45Z</time>
      </trkpt>
      <trkpt lat="43.65339" lon="6.25294">
        <ele>963</ele>
        <time>2019-03-11T14:19:52Z</time>
      </trkpt>
      <trkpt lat="43.65336" lon="6.25306">
        <ele>962</ele>
        <time>2019-03-11T14:20:01Z</time>
      </trkpt>
      <trkpt lat="43.65329" lon="6.25317">
        <ele>960</ele>
        <time>2019-03-11T14:20:11Z</time>
      </trkpt>
      <trkpt lat="43.65328" lon="6.25323">
        <ele>960</ele>
        <time>2019-03-11T14:20:15Z</time>
      </trkpt>
      <trkpt lat="43.65327" lon="6.25329">
        <ele>960</ele>
        <time>2019-03-11T14:20:19Z</time>
      </trkpt>
      <trkpt lat="43.65326" lon="6.25334">
        <ele>961</ele>
        <time>2019-03-11T14:20:24Z</time>
      </trkpt>
      <trkpt lat="43.65327" lon="6.25341">
        <ele>960</ele>
        <time>2019-03-11T14:20:27Z</time>
      </trkpt>
      <trkpt lat="43.65323" lon="6.25347">
        <ele>954</ele>
        <time>2019-03-11T14:20:32Z</time>
      </trkpt>
      <trkpt lat="43.65323" lon="6.25353">
        <ele>953</ele>
        <time>2019-03-11T14:20:37Z</time>
      </trkpt>
      <trkpt lat="43.65322" lon="6.2536">
        <ele>950</ele>
        <time>2019-03-11T14:20:41Z</time>
      </trkpt>
      <trkpt lat="43.65321" lon="6.25366">
        <ele>949</ele>
        <time>2019-03-11T14:20:45Z</time>
      </trkpt>
      <trkpt lat="43.65322" lon="6.25372">
        <ele>950</ele>
        <time>2019-03-11T14:20:48Z</time>
      </trkpt>
      <trkpt lat="43.65319" lon="6.2538">
        <ele>949</ele>
        <time>2019-03-11T14:20:54Z</time>
      </trkpt>
      <trkpt lat="43.65318" lon="6.25387">
        <ele>946</ele>
        <time>2019-03-11T14:20:57Z</time>
      </trkpt>
      <trkpt lat="43.65317" lon="6.25394">
        <ele>945</ele>
        <time>2019-03-11T14:21:04Z</time>
      </trkpt>
      <trkpt lat="43.65317" lon="6.25401">
        <ele>946</ele>
        <time>2019-03-11T14:21:07Z</time>
      </trkpt>
      <trkpt lat="43.65319" lon="6.25415">
        <ele>950</ele>
        <time>2019-03-11T14:21:14Z</time>
      </trkpt>
      <trkpt lat="43.6532" lon="6.25421">
        <ele>953</ele>
        <time>2019-03-11T14:21:17Z</time>
      </trkpt>
      <trkpt lat="43.65319" lon="6.25427">
        <ele>954</ele>
        <time>2019-03-11T14:21:21Z</time>
      </trkpt>
      <trkpt lat="43.65319" lon="6.25434">
        <ele>954</ele>
        <time>2019-03-11T14:21:27Z</time>
      </trkpt>
      <trkpt lat="43.65323" lon="6.25436">
        <ele>953</ele>
        <time>2019-03-11T14:21:34Z</time>
      </trkpt>
      <trkpt lat="43.65323" lon="6.25442">
        <ele>950</ele>
        <time>2019-03-11T14:21:44Z</time>
      </trkpt>
      <trkpt lat="43.65323" lon="6.25444">
        <ele>948</ele>
        <time>2019-03-11T14:22:37Z</time>
      </trkpt>
      <trkpt lat="43.65325" lon="6.25447">
        <ele>953</ele>
        <time>2019-03-11T14:22:55Z</time>
      </trkpt>
      <trkpt lat="43.65321" lon="6.25448">
        <ele>952</ele>
        <time>2019-03-11T14:23:18Z</time>
      </trkpt>
      <trkpt lat="43.65318" lon="6.25448">
        <ele>950</ele>
        <time>2019-03-11T14:23:20Z</time>
      </trkpt>
      <trkpt lat="43.65317" lon="6.25442">
        <ele>948</ele>
        <time>2019-03-11T14:23:24Z</time>
      </trkpt>
      <trkpt lat="43.65311" lon="6.25447">
        <ele>948</ele>
        <time>2019-03-11T14:23:34Z</time>
      </trkpt>
      <trkpt lat="43.65307" lon="6.25449">
        <ele>951</ele>
        <time>2019-03-11T14:23:37Z</time>
      </trkpt>
      <trkpt lat="43.65302" lon="6.25448">
        <ele>951</ele>
        <time>2019-03-11T14:23:40Z</time>
      </trkpt>
      <trkpt lat="43.65299" lon="6.2545">
        <ele>951</ele>
        <time>2019-03-11T14:23:42Z</time>
      </trkpt>
      <trkpt lat="43.65293" lon="6.25455">
        <ele>951</ele>
        <time>2019-03-11T14:23:48Z</time>
      </trkpt>
      <trkpt lat="43.6529" lon="6.25453">
        <ele>951</ele>
        <time>2019-03-11T14:23:52Z</time>
      </trkpt>
      <trkpt lat="43.65286" lon="6.25459">
        <ele>950</ele>
        <time>2019-03-11T14:23:55Z</time>
      </trkpt>
      <trkpt lat="43.65277" lon="6.25466">
        <ele>950</ele>
        <time>2019-03-11T14:24:02Z</time>
      </trkpt>
      <trkpt lat="43.65275" lon="6.25473">
        <ele>951</ele>
        <time>2019-03-11T14:24:07Z</time>
      </trkpt>
      <trkpt lat="43.65275" lon="6.25479">
        <ele>950</ele>
        <time>2019-03-11T14:24:13Z</time>
      </trkpt>
      <trkpt lat="43.65272" lon="6.25482">
        <ele>949</ele>
        <time>2019-03-11T14:24:16Z</time>
      </trkpt>
      <trkpt lat="43.65264" lon="6.25486">
        <ele>950</ele>
        <time>2019-03-11T14:24:22Z</time>
      </trkpt>
      <trkpt lat="43.65264" lon="6.25491">
        <ele>951</ele>
        <time>2019-03-11T14:24:28Z</time>
      </trkpt>
      <trkpt lat="43.65256" lon="6.25498">
        <ele>949</ele>
        <time>2019-03-11T14:24:35Z</time>
      </trkpt>
      <trkpt lat="43.6525" lon="6.25504">
        <ele>950</ele>
        <time>2019-03-11T14:24:42Z</time>
      </trkpt>
      <trkpt lat="43.65247" lon="6.25503">
        <ele>950</ele>
        <time>2019-03-11T14:24:50Z</time>
      </trkpt>
      <trkpt lat="43.6524" lon="6.25507">
        <ele>949</ele>
        <time>2019-03-11T14:24:58Z</time>
      </trkpt>
      <trkpt lat="43.6523" lon="6.25512">
        <ele>950</ele>
        <time>2019-03-11T14:25:10Z</time>
      </trkpt>
      <trkpt lat="43.65225" lon="6.25518">
        <ele>946</ele>
        <time>2019-03-11T14:25:16Z</time>
      </trkpt>
      <trkpt lat="43.65219" lon="6.25528">
        <ele>945</ele>
        <time>2019-03-11T14:25:24Z</time>
      </trkpt>
      <trkpt lat="43.65217" lon="6.25534">
        <ele>948</ele>
        <time>2019-03-11T14:25:28Z</time>
      </trkpt>
      <trkpt lat="43.65212" lon="6.25535">
        <ele>950</ele>
        <time>2019-03-11T14:25:35Z</time>
      </trkpt>
      <trkpt lat="43.65214" lon="6.25541">
        <ele>951</ele>
        <time>2019-03-11T14:25:42Z</time>
      </trkpt>
      <trkpt lat="43.65212" lon="6.25546">
        <ele>951</ele>
        <time>2019-03-11T14:25:44Z</time>
      </trkpt>
      <trkpt lat="43.65207" lon="6.25549">
        <ele>951</ele>
        <time>2019-03-11T14:25:47Z</time>
      </trkpt>
      <trkpt lat="43.65205" lon="6.25556">
        <ele>952</ele>
        <time>2019-03-11T14:25:51Z</time>
      </trkpt>
      <trkpt lat="43.65202" lon="6.25563">
        <ele>957</ele>
        <time>2019-03-11T14:25:56Z</time>
      </trkpt>
      <trkpt lat="43.65194" lon="6.25566">
        <ele>955</ele>
        <time>2019-03-11T14:26:05Z</time>
      </trkpt>
      <trkpt lat="43.6519" lon="6.25574">
        <ele>954</ele>
        <time>2019-03-11T14:26:16Z</time>
      </trkpt>
      <trkpt lat="43.65186" lon="6.25574">
        <ele>953</ele>
        <time>2019-03-11T14:26:21Z</time>
      </trkpt>
      <trkpt lat="43.65179" lon="6.25576">
        <ele>953</ele>
        <time>2019-03-11T14:26:24Z</time>
      </trkpt>
      <trkpt lat="43.65175" lon="6.25575">
        <ele>953</ele>
        <time>2019-03-11T14:26:26Z</time>
      </trkpt>
      <trkpt lat="43.65171" lon="6.25577">
        <ele>953</ele>
        <time>2019-03-11T14:26:31Z</time>
      </trkpt>
      <trkpt lat="43.65167" lon="6.25578">
        <ele>953</ele>
        <time>2019-03-11T14:26:44Z</time>
      </trkpt>
      <trkpt lat="43.65164" lon="6.25583">
        <ele>955</ele>
        <time>2019-03-11T14:26:47Z</time>
      </trkpt>
      <trkpt lat="43.65157" lon="6.25588">
        <ele>956</ele>
        <time>2019-03-11T14:26:56Z</time>
      </trkpt>
      <trkpt lat="43.65154" lon="6.25585">
        <ele>954</ele>
        <time>2019-03-11T14:26:59Z</time>
      </trkpt>
      <trkpt lat="43.65145" lon="6.25587">
        <ele>950</ele>
        <time>2019-03-11T14:27:30Z</time>
      </trkpt>
      <trkpt lat="43.65141" lon="6.25589">
        <ele>950</ele>
        <time>2019-03-11T14:27:37Z</time>
      </trkpt>
      <trkpt lat="43.65136" lon="6.25594">
        <ele>951</ele>
        <time>2019-03-11T14:27:41Z</time>
      </trkpt>
      <trkpt lat="43.65132" lon="6.25597">
        <ele>951</ele>
        <time>2019-03-11T14:27:45Z</time>
      </trkpt>
      <trkpt lat="43.65129" lon="6.25602">
        <ele>951</ele>
        <time>2019-03-11T14:27:51Z</time>
      </trkpt>
      <trkpt lat="43.65134" lon="6.25607">
        <ele>951</ele>
        <time>2019-03-11T14:27:56Z</time>
      </trkpt>
      <trkpt lat="43.65134" lon="6.25613">
        <ele>951</ele>
        <time>2019-03-11T14:28:04Z</time>
      </trkpt>
      <trkpt lat="43.6513" lon="6.25626">
        <ele>950</ele>
        <time>2019-03-11T14:28:15Z</time>
      </trkpt>
      <trkpt lat="43.65125" lon="6.25628">
        <ele>950</ele>
        <time>2019-03-11T14:28:20Z</time>
      </trkpt>
      <trkpt lat="43.65126" lon="6.25637">
        <ele>951</ele>
        <time>2019-03-11T14:28:27Z</time>
      </trkpt>
      <trkpt lat="43.65118" lon="6.2565">
        <ele>961</ele>
        <time>2019-03-11T14:28:41Z</time>
      </trkpt>
      <trkpt lat="43.65116" lon="6.25651">
        <ele>962</ele>
        <time>2019-03-11T14:28:44Z</time>
      </trkpt>
      <trkpt lat="43.65113" lon="6.25654">
        <ele>965</ele>
        <time>2019-03-11T14:28:48Z</time>
      </trkpt>
      <trkpt lat="43.65097" lon="6.2567">
        <ele>967</ele>
        <time>2019-03-11T14:29:09Z</time>
      </trkpt>
      <trkpt lat="43.65096" lon="6.25674">
        <ele>969</ele>
        <time>2019-03-11T14:29:12Z</time>
      </trkpt>
      <trkpt lat="43.65096" lon="6.25678">
        <ele>969</ele>
        <time>2019-03-11T14:29:17Z</time>
      </trkpt>
      <trkpt lat="43.65094" lon="6.25682">
        <ele>971</ele>
        <time>2019-03-11T14:29:20Z</time>
      </trkpt>
      <trkpt lat="43.65095" lon="6.25689">
        <ele>970</ele>
        <time>2019-03-11T14:29:32Z</time>
      </trkpt>
      <trkpt lat="43.65099" lon="6.25689">
        <ele>969</ele>
        <time>2019-03-11T14:29:42Z</time>
      </trkpt>
      <trkpt lat="43.65101" lon="6.25692">
        <ele>969</ele>
        <time>2019-03-11T14:29:44Z</time>
      </trkpt>
      <trkpt lat="43.65102" lon="6.25697">
        <ele>968</ele>
        <time>2019-03-11T14:29:48Z</time>
      </trkpt>
      <trkpt lat="43.65106" lon="6.25701">
        <ele>965</ele>
        <time>2019-03-11T14:29:54Z</time>
      </trkpt>
      <trkpt lat="43.65102" lon="6.25709">
        <ele>964</ele>
        <time>2019-03-11T14:29:58Z</time>
      </trkpt>
      <trkpt lat="43.65116" lon="6.25719">
        <ele>965</ele>
        <time>2019-03-11T14:30:07Z</time>
      </trkpt>
      <trkpt lat="43.65116" lon="6.25727">
        <ele>966</ele>
        <time>2019-03-11T14:30:12Z</time>
      </trkpt>
      <trkpt lat="43.65114" lon="6.25735">
        <ele>962</ele>
        <time>2019-03-11T14:30:26Z</time>
      </trkpt>
      <trkpt lat="43.65114" lon="6.25742">
        <ele>961</ele>
        <time>2019-03-11T14:30:31Z</time>
      </trkpt>
      <trkpt lat="43.65117" lon="6.2575">
        <ele>961</ele>
        <time>2019-03-11T14:30:36Z</time>
      </trkpt>
      <trkpt lat="43.65118" lon="6.25756">
        <ele>960</ele>
        <time>2019-03-11T14:30:52Z</time>
      </trkpt>
      <trkpt lat="43.6512" lon="6.25761">
        <ele>957</ele>
        <time>2019-03-11T14:30:58Z</time>
      </trkpt>
      <trkpt lat="43.65118" lon="6.25767">
        <ele>958</ele>
        <time>2019-03-11T14:31:07Z</time>
      </trkpt>
      <trkpt lat="43.65117" lon="6.25772">
        <ele>961</ele>
        <time>2019-03-11T14:31:12Z</time>
      </trkpt>
      <trkpt lat="43.65118" lon="6.25779">
        <ele>960</ele>
        <time>2019-03-11T14:31:21Z</time>
      </trkpt>
      <trkpt lat="43.65118" lon="6.25784">
        <ele>958</ele>
        <time>2019-03-11T14:31:24Z</time>
      </trkpt>
      <trkpt lat="43.65121" lon="6.25788">
        <ele>958</ele>
        <time>2019-03-11T14:31:33Z</time>
      </trkpt>
      <trkpt lat="43.65121" lon="6.25794">
        <ele>955</ele>
        <time>2019-03-11T14:31:43Z</time>
      </trkpt>
      <trkpt lat="43.65123" lon="6.25798">
        <ele>955</ele>
        <time>2019-03-11T14:31:46Z</time>
      </trkpt>
      <trkpt lat="43.65125" lon="6.25802">
        <ele>956</ele>
        <time>2019-03-11T14:31:48Z</time>
      </trkpt>
      <trkpt lat="43.65125" lon="6.25806">
        <ele>956</ele>
        <time>2019-03-11T14:31:51Z</time>
      </trkpt>
      <trkpt lat="43.65122" lon="6.25822">
        <ele>960</ele>
        <time>2019-03-11T14:32:25Z</time>
      </trkpt>
      <trkpt lat="43.65125" lon="6.25823">
        <ele>960</ele>
        <time>2019-03-11T14:33:18Z</time>
      </trkpt>
      <trkpt lat="43.65126" lon="6.2583">
        <ele>958</ele>
        <time>2019-03-11T14:34:13Z</time>
      </trkpt>
      <trkpt lat="43.65125" lon="6.25837">
        <ele>958</ele>
        <time>2019-03-11T14:34:22Z</time>
      </trkpt>
      <trkpt lat="43.65127" lon="6.25843">
        <ele>958</ele>
        <time>2019-03-11T14:34:29Z</time>
      </trkpt>
      <trkpt lat="43.65126" lon="6.25851">
        <ele>959</ele>
        <time>2019-03-11T14:34:36Z</time>
      </trkpt>
      <trkpt lat="43.65129" lon="6.25859">
        <ele>961</ele>
        <time>2019-03-11T14:34:41Z</time>
      </trkpt>
      <trkpt lat="43.6513" lon="6.25866">
        <ele>964</ele>
        <time>2019-03-11T14:34:46Z</time>
      </trkpt>
      <trkpt lat="43.65127" lon="6.25872">
        <ele>966</ele>
        <time>2019-03-11T14:34:51Z</time>
      </trkpt>
      <trkpt lat="43.65131" lon="6.25876">
        <ele>968</ele>
        <time>2019-03-11T14:34:56Z</time>
      </trkpt>
      <trkpt lat="43.65129" lon="6.25881">
        <ele>969</ele>
        <time>2019-03-11T14:35:02Z</time>
      </trkpt>
      <trkpt lat="43.65127" lon="6.25885">
        <ele>968</ele>
        <time>2019-03-11T14:35:07Z</time>
      </trkpt>
      <trkpt lat="43.65128" lon="6.25889">
        <ele>968</ele>
        <time>2019-03-11T14:35:12Z</time>
      </trkpt>
      <trkpt lat="43.65122" lon="6.25907">
        <ele>966</ele>
        <time>2019-03-11T14:35:36Z</time>
      </trkpt>
      <trkpt lat="43.6512" lon="6.2591">
        <ele>963</ele>
        <time>2019-03-11T14:35:46Z</time>
      </trkpt>
      <trkpt lat="43.65119" lon="6.25914">
        <ele>962</ele>
        <time>2019-03-11T14:35:48Z</time>
      </trkpt>
      <trkpt lat="43.65121" lon="6.25925">
        <ele>960</ele>
        <time>2019-03-11T14:36:01Z</time>
      </trkpt>
      <trkpt lat="43.65123" lon="6.25931">
        <ele>964</ele>
        <time>2019-03-11T14:36:05Z</time>
      </trkpt>
      <trkpt lat="43.6512" lon="6.25939">
        <ele>967</ele>
        <time>2019-03-11T14:36:09Z</time>
      </trkpt>
      <trkpt lat="43.65121" lon="6.25944">
        <ele>968</ele>
        <time>2019-03-11T14:36:12Z</time>
      </trkpt>
      <trkpt lat="43.65118" lon="6.25948">
        <ele>969</ele>
        <time>2019-03-11T14:36:18Z</time>
      </trkpt>
      <trkpt lat="43.65115" lon="6.2595">
        <ele>969</ele>
        <time>2019-03-11T14:36:21Z</time>
      </trkpt>
      <trkpt lat="43.65112" lon="6.25956">
        <ele>971</ele>
        <time>2019-03-11T14:36:27Z</time>
      </trkpt>
      <trkpt lat="43.65111" lon="6.25961">
        <ele>972</ele>
        <time>2019-03-11T14:36:33Z</time>
      </trkpt>
      <trkpt lat="43.6511" lon="6.25967">
        <ele>972</ele>
        <time>2019-03-11T14:36:40Z</time>
      </trkpt>
      <trkpt lat="43.65106" lon="6.25969">
        <ele>973</ele>
        <time>2019-03-11T14:36:44Z</time>
      </trkpt>
      <trkpt lat="43.65104" lon="6.25977">
        <ele>970</ele>
        <time>2019-03-11T14:36:51Z</time>
      </trkpt>
      <trkpt lat="43.65103" lon="6.25981">
        <ele>969</ele>
        <time>2019-03-11T14:36:54Z</time>
      </trkpt>
      <trkpt lat="43.65101" lon="6.25985">
        <ele>973</ele>
        <time>2019-03-11T14:37:17Z</time>
      </trkpt>
      <trkpt lat="43.65101" lon="6.2599">
        <ele>974</ele>
        <time>2019-03-11T14:37:32Z</time>
      </trkpt>
      <trkpt lat="43.651" lon="6.25993">
        <ele>974</ele>
        <time>2019-03-11T14:37:39Z</time>
      </trkpt>
      <trkpt lat="43.65097" lon="6.25997">
        <ele>974</ele>
        <time>2019-03-11T14:37:44Z</time>
      </trkpt>
      <trkpt lat="43.65098" lon="6.26003">
        <ele>974</ele>
        <time>2019-03-11T14:37:45Z</time>
      </trkpt>
      <trkpt lat="43.65102" lon="6.26013">
        <ele>974</ele>
        <time>2019-03-11T14:37:52Z</time>
      </trkpt>
      <trkpt lat="43.65097" lon="6.26018">
        <ele>974</ele>
        <time>2019-03-11T14:38:00Z</time>
      </trkpt>
      <trkpt lat="43.65097" lon="6.26026">
        <ele>974</ele>
        <time>2019-03-11T14:38:04Z</time>
      </trkpt>
      <trkpt lat="43.65097" lon="6.26031">
        <ele>972</ele>
        <time>2019-03-11T14:38:10Z</time>
      </trkpt>
      <trkpt lat="43.65099" lon="6.26035">
        <ele>972</ele>
        <time>2019-03-11T14:38:14Z</time>
      </trkpt>
      <trkpt lat="43.65097" lon="6.2604">
        <ele>972</ele>
        <time>2019-03-11T14:38:17Z</time>
      </trkpt>
      <trkpt lat="43.65097" lon="6.26046">
        <ele>973</ele>
        <time>2019-03-11T14:38:21Z</time>
      </trkpt>
      <trkpt lat="43.65096" lon="6.26053">
        <ele>973</ele>
        <time>2019-03-11T14:38:25Z</time>
      </trkpt>
      <trkpt lat="43.65097" lon="6.26059">
        <ele>973</ele>
        <time>2019-03-11T14:38:29Z</time>
      </trkpt>
      <trkpt lat="43.65091" lon="6.26063">
        <ele>971</ele>
        <time>2019-03-11T14:38:35Z</time>
      </trkpt>
      <trkpt lat="43.65084" lon="6.26079">
        <ele>969</ele>
        <time>2019-03-11T14:38:52Z</time>
      </trkpt>
      <trkpt lat="43.65081" lon="6.26082">
        <ele>969</ele>
        <time>2019-03-11T14:39:02Z</time>
      </trkpt>
      <trkpt lat="43.65078" lon="6.26087">
        <ele>969</ele>
        <time>2019-03-11T14:39:05Z</time>
      </trkpt>
      <trkpt lat="43.65075" lon="6.26091">
        <ele>970</ele>
        <time>2019-03-11T14:39:12Z</time>
      </trkpt>
      <trkpt lat="43.65074" lon="6.26098">
        <ele>970</ele>
        <time>2019-03-11T14:39:19Z</time>
      </trkpt>
      <trkpt lat="43.65072" lon="6.26103">
        <ele>967</ele>
        <time>2019-03-11T14:39:27Z</time>
      </trkpt>
      <trkpt lat="43.65071" lon="6.26108">
        <ele>967</ele>
        <time>2019-03-11T14:39:33Z</time>
      </trkpt>
      <trkpt lat="43.6507" lon="6.26114">
        <ele>968</ele>
        <time>2019-03-11T14:39:38Z</time>
      </trkpt>
      <trkpt lat="43.65067" lon="6.26118">
        <ele>970</ele>
        <time>2019-03-11T14:39:43Z</time>
      </trkpt>
      <trkpt lat="43.65065" lon="6.26125">
        <ele>973</ele>
        <time>2019-03-11T14:39:52Z</time>
      </trkpt>
      <trkpt lat="43.65063" lon="6.26135">
        <ele>974</ele>
        <time>2019-03-11T14:39:59Z</time>
      </trkpt>
      <trkpt lat="43.65057" lon="6.26139">
        <ele>972</ele>
        <time>2019-03-11T14:40:04Z</time>
      </trkpt>
      <trkpt lat="43.65056" lon="6.26144">
        <ele>973</ele>
        <time>2019-03-11T14:40:16Z</time>
      </trkpt>
      <trkpt lat="43.65056" lon="6.2615">
        <ele>979</ele>
        <time>2019-03-11T14:40:23Z</time>
      </trkpt>
      <trkpt lat="43.65055" lon="6.26154">
        <ele>980</ele>
        <time>2019-03-11T14:40:30Z</time>
      </trkpt>
      <trkpt lat="43.65054" lon="6.2616">
        <ele>979</ele>
        <time>2019-03-11T14:40:36Z</time>
      </trkpt>
      <trkpt lat="43.65052" lon="6.2618">
        <ele>979</ele>
        <time>2019-03-11T14:40:50Z</time>
      </trkpt>
      <trkpt lat="43.65053" lon="6.26184">
        <ele>983</ele>
        <time>2019-03-11T14:41:04Z</time>
      </trkpt>
      <trkpt lat="43.6505" lon="6.26186">
        <ele>984</ele>
        <time>2019-03-11T14:41:17Z</time>
      </trkpt>
      <trkpt lat="43.6505" lon="6.26191">
        <ele>985</ele>
        <time>2019-03-11T14:41:20Z</time>
      </trkpt>
      <trkpt lat="43.6505" lon="6.26196">
        <ele>987</ele>
        <time>2019-03-11T14:41:24Z</time>
      </trkpt>
      <trkpt lat="43.65051" lon="6.26201">
        <ele>989</ele>
        <time>2019-03-11T14:41:29Z</time>
      </trkpt>
      <trkpt lat="43.65051" lon="6.26206">
        <ele>993</ele>
        <time>2019-03-11T14:41:36Z</time>
      </trkpt>
      <trkpt lat="43.65053" lon="6.26208">
        <ele>992</ele>
        <time>2019-03-11T14:41:46Z</time>
      </trkpt>
      <trkpt lat="43.65053" lon="6.26213">
        <ele>990</ele>
        <time>2019-03-11T14:42:05Z</time>
      </trkpt>
      <trkpt lat="43.6505" lon="6.26225">
        <ele>990</ele>
        <time>2019-03-11T14:42:16Z</time>
      </trkpt>
      <trkpt lat="43.65043" lon="6.26246">
        <ele>988</ele>
        <time>2019-03-11T14:42:32Z</time>
      </trkpt>
      <trkpt lat="43.65045" lon="6.26252">
        <ele>985</ele>
        <time>2019-03-11T14:42:38Z</time>
      </trkpt>
      <trkpt lat="43.65044" lon="6.26257">
        <ele>984</ele>
        <time>2019-03-11T14:42:42Z</time>
      </trkpt>
      <trkpt lat="43.65041" lon="6.26261">
        <ele>982</ele>
        <time>2019-03-11T14:42:47Z</time>
      </trkpt>
      <trkpt lat="43.6504" lon="6.26267">
        <ele>983</ele>
        <time>2019-03-11T14:43:00Z</time>
      </trkpt>
      <trkpt lat="43.65038" lon="6.26271">
        <ele>984</ele>
        <time>2019-03-11T14:43:06Z</time>
      </trkpt>
      <trkpt lat="43.65036" lon="6.26284">
        <ele>986</ele>
        <time>2019-03-11T14:43:19Z</time>
      </trkpt>
      <trkpt lat="43.65033" lon="6.26291">
        <ele>986</ele>
        <time>2019-03-11T14:43:25Z</time>
      </trkpt>
      <trkpt lat="43.65032" lon="6.26295">
        <ele>986</ele>
        <time>2019-03-11T14:43:29Z</time>
      </trkpt>
      <trkpt lat="43.65032" lon="6.263">
        <ele>989</ele>
        <time>2019-03-11T14:43:31Z</time>
      </trkpt>
      <trkpt lat="43.65029" lon="6.26304">
        <ele>990</ele>
        <time>2019-03-11T14:43:34Z</time>
      </trkpt>
      <trkpt lat="43.65029" lon="6.26314">
        <ele>986</ele>
        <time>2019-03-11T14:43:48Z</time>
      </trkpt>
      <trkpt lat="43.65032" lon="6.26332">
        <ele>990</ele>
        <time>2019-03-11T14:43:59Z</time>
      </trkpt>
      <trkpt lat="43.65032" lon="6.26337">
        <ele>990</ele>
        <time>2019-03-11T14:44:03Z</time>
      </trkpt>
      <trkpt lat="43.65033" lon="6.26342">
        <ele>991</ele>
        <time>2019-03-11T14:44:07Z</time>
      </trkpt>
      <trkpt lat="43.6503" lon="6.26349">
        <ele>991</ele>
        <time>2019-03-11T14:44:21Z</time>
      </trkpt>
      <trkpt lat="43.65024" lon="6.26356">
        <ele>995</ele>
        <time>2019-03-11T14:44:31Z</time>
      </trkpt>
      <trkpt lat="43.65029" lon="6.26357">
        <ele>999</ele>
        <time>2019-03-11T14:44:55Z</time>
      </trkpt>
      <trkpt lat="43.65028" lon="6.26358">
        <ele>999</ele>
        <time>2019-03-11T14:45:36Z</time>
      </trkpt>
      <trkpt lat="43.65027" lon="6.2636">
        <ele>999</ele>
        <time>2019-03-11T14:46:03Z</time>
      </trkpt>
      <trkpt lat="43.65028" lon="6.26366">
        <ele>999</ele>
        <time>2019-03-11T14:46:39Z</time>
      </trkpt>
      <trkpt lat="43.65024" lon="6.26369">
        <ele>1000</ele>
        <time>2019-03-11T14:46:45Z</time>
      </trkpt>
      <trkpt lat="43.65022" lon="6.26375">
        <ele>998</ele>
        <time>2019-03-11T14:46:55Z</time>
      </trkpt>
      <trkpt lat="43.65019" lon="6.26378">
        <ele>996</ele>
        <time>2019-03-11T14:46:59Z</time>
      </trkpt>
      <trkpt lat="43.65018" lon="6.26384">
        <ele>994</ele>
        <time>2019-03-11T14:47:09Z</time>
      </trkpt>
      <trkpt lat="43.65019" lon="6.2639">
        <ele>987</ele>
        <time>2019-03-11T14:47:23Z</time>
      </trkpt>
      <trkpt lat="43.65016" lon="6.26412">
        <ele>985</ele>
        <time>2019-03-11T14:47:36Z</time>
      </trkpt>
      <trkpt lat="43.65016" lon="6.26419">
        <ele>984</ele>
        <time>2019-03-11T14:47:40Z</time>
      </trkpt>
      <trkpt lat="43.65014" lon="6.26426">
        <ele>986</ele>
        <time>2019-03-11T14:47:43Z</time>
      </trkpt>
      <trkpt lat="43.65009" lon="6.26432">
        <ele>984</ele>
        <time>2019-03-11T14:47:50Z</time>
      </trkpt>
      <trkpt lat="43.6501" lon="6.26441">
        <ele>980</ele>
        <time>2019-03-11T14:47:57Z</time>
      </trkpt>
      <trkpt lat="43.6501" lon="6.26451">
        <ele>980</ele>
        <time>2019-03-11T14:48:03Z</time>
      </trkpt>
      <trkpt lat="43.65006" lon="6.26458">
        <ele>981</ele>
        <time>2019-03-11T14:48:13Z</time>
      </trkpt>
      <trkpt lat="43.65006" lon="6.26475">
        <ele>983</ele>
        <time>2019-03-11T14:48:21Z</time>
      </trkpt>
      <trkpt lat="43.65005" lon="6.26484">
        <ele>983</ele>
        <time>2019-03-11T14:48:26Z</time>
      </trkpt>
      <trkpt lat="43.65001" lon="6.26488">
        <ele>983</ele>
        <time>2019-03-11T14:48:32Z</time>
      </trkpt>
      <trkpt lat="43.65001" lon="6.26498">
        <ele>984</ele>
        <time>2019-03-11T14:48:38Z</time>
      </trkpt>
      <trkpt lat="43.64999" lon="6.26504">
        <ele>980</ele>
        <time>2019-03-11T14:48:42Z</time>
      </trkpt>
      <trkpt lat="43.64997" lon="6.26509">
        <ele>979</ele>
        <time>2019-03-11T14:48:48Z</time>
      </trkpt>
      <trkpt lat="43.64994" lon="6.26523">
        <ele>982</ele>
        <time>2019-03-11T14:49:00Z</time>
      </trkpt>
      <trkpt lat="43.64997" lon="6.26532">
        <ele>986</ele>
        <time>2019-03-11T14:49:08Z</time>
      </trkpt>
      <trkpt lat="43.64993" lon="6.26532">
        <ele>987</ele>
        <time>2019-03-11T14:49:16Z</time>
      </trkpt>
      <trkpt lat="43.64989" lon="6.26537">
        <ele>992</ele>
        <time>2019-03-11T14:49:23Z</time>
      </trkpt>
      <trkpt lat="43.64987" lon="6.2654">
        <ele>993</ele>
        <time>2019-03-11T14:49:31Z</time>
      </trkpt>
      <trkpt lat="43.64986" lon="6.26545">
        <ele>995</ele>
        <time>2019-03-11T14:49:46Z</time>
      </trkpt>
      <trkpt lat="43.64984" lon="6.2655">
        <ele>993</ele>
        <time>2019-03-11T14:49:56Z</time>
      </trkpt>
      <trkpt lat="43.64983" lon="6.26555">
        <ele>996</ele>
        <time>2019-03-11T14:50:07Z</time>
      </trkpt>
      <trkpt lat="43.64982" lon="6.2657">
        <ele>996</ele>
        <time>2019-03-11T14:50:24Z</time>
      </trkpt>
      <trkpt lat="43.64985" lon="6.26577">
        <ele>995</ele>
        <time>2019-03-11T14:50:28Z</time>
      </trkpt>
      <trkpt lat="43.64982" lon="6.2658">
        <ele>995</ele>
        <time>2019-03-11T14:50:37Z</time>
      </trkpt>
      <trkpt lat="43.64979" lon="6.26579">
        <ele>994</ele>
        <time>2019-03-11T14:50:41Z</time>
      </trkpt>
      <trkpt lat="43.64962" lon="6.26593">
        <ele>994</ele>
        <time>2019-03-11T14:51:07Z</time>
      </trkpt>
      <trkpt lat="43.6496" lon="6.26601">
        <ele>996</ele>
        <time>2019-03-11T14:51:13Z</time>
      </trkpt>
      <trkpt lat="43.64958" lon="6.2661">
        <ele>997</ele>
        <time>2019-03-11T14:51:19Z</time>
      </trkpt>
      <trkpt lat="43.64956" lon="6.26617">
        <ele>996</ele>
        <time>2019-03-11T14:51:23Z</time>
      </trkpt>
      <trkpt lat="43.64953" lon="6.26624">
        <ele>996</ele>
        <time>2019-03-11T14:51:29Z</time>
      </trkpt>
      <trkpt lat="43.64954" lon="6.26633">
        <ele>996</ele>
        <time>2019-03-11T14:51:35Z</time>
      </trkpt>
      <trkpt lat="43.64951" lon="6.26637">
        <ele>995</ele>
        <time>2019-03-11T14:51:39Z</time>
      </trkpt>
      <trkpt lat="43.6495" lon="6.26644">
        <ele>996</ele>
        <time>2019-03-11T14:51:43Z</time>
      </trkpt>
      <trkpt lat="43.6494" lon="6.2666">
        <ele>996</ele>
        <time>2019-03-11T14:51:59Z</time>
      </trkpt>
      <trkpt lat="43.64934" lon="6.26662">
        <ele>999</ele>
        <time>2019-03-11T14:52:03Z</time>
      </trkpt>
      <trkpt lat="43.64933" lon="6.2667">
        <ele>1003</ele>
        <time>2019-03-11T14:52:13Z</time>
      </trkpt>
      <trkpt lat="43.6493" lon="6.26677">
        <ele>1002</ele>
        <time>2019-03-11T14:52:19Z</time>
      </trkpt>
      <trkpt lat="43.64926" lon="6.26683">
        <ele>1002</ele>
        <time>2019-03-11T14:52:27Z</time>
      </trkpt>
      <trkpt lat="43.64925" lon="6.26688">
        <ele>1003</ele>
        <time>2019-03-11T14:52:45Z</time>
      </trkpt>
      <trkpt lat="43.64923" lon="6.26693">
        <ele>1003</ele>
        <time>2019-03-11T14:52:49Z</time>
      </trkpt>
      <trkpt lat="43.64921" lon="6.26703">
        <ele>1010</ele>
        <time>2019-03-11T14:52:59Z</time>
      </trkpt>
      <trkpt lat="43.6492" lon="6.26708">
        <ele>1010</ele>
        <time>2019-03-11T14:53:02Z</time>
      </trkpt>
      <trkpt lat="43.64922" lon="6.26714">
        <ele>1011</ele>
        <time>2019-03-11T14:53:05Z</time>
      </trkpt>
      <trkpt lat="43.6492" lon="6.26722">
        <ele>1010</ele>
        <time>2019-03-11T14:53:11Z</time>
      </trkpt>
      <trkpt lat="43.6492" lon="6.26729">
        <ele>1010</ele>
        <time>2019-03-11T14:53:14Z</time>
      </trkpt>
      <trkpt lat="43.64916" lon="6.26727">
        <ele>1010</ele>
        <time>2019-03-11T14:53:19Z</time>
      </trkpt>
      <trkpt lat="43.64916" lon="6.26733">
        <ele>1011</ele>
        <time>2019-03-11T14:53:25Z</time>
      </trkpt>
      <trkpt lat="43.64916" lon="6.26738">
        <ele>1013</ele>
        <time>2019-03-11T14:53:29Z</time>
      </trkpt>
      <trkpt lat="43.64913" lon="6.26744">
        <ele>1012</ele>
        <time>2019-03-11T14:53:33Z</time>
      </trkpt>
      <trkpt lat="43.64912" lon="6.26749">
        <ele>1011</ele>
        <time>2019-03-11T14:53:36Z</time>
      </trkpt>
      <trkpt lat="43.6491" lon="6.2676">
        <ele>1010</ele>
        <time>2019-03-11T14:53:44Z</time>
      </trkpt>
      <trkpt lat="43.64908" lon="6.26766">
        <ele>1010</ele>
        <time>2019-03-11T14:53:48Z</time>
      </trkpt>
      <trkpt lat="43.64906" lon="6.2677">
        <ele>1011</ele>
        <time>2019-03-11T14:53:53Z</time>
      </trkpt>
      <trkpt lat="43.64908" lon="6.26782">
        <ele>1017</ele>
        <time>2019-03-11T14:54:05Z</time>
      </trkpt>
      <trkpt lat="43.64903" lon="6.26787">
        <ele>1017</ele>
        <time>2019-03-11T14:54:11Z</time>
      </trkpt>
      <trkpt lat="43.649" lon="6.26791">
        <ele>1018</ele>
        <time>2019-03-11T14:54:15Z</time>
      </trkpt>
      <trkpt lat="43.64898" lon="6.26801">
        <ele>1018</ele>
        <time>2019-03-11T14:54:35Z</time>
      </trkpt>
      <trkpt lat="43.64896" lon="6.26804">
        <ele>1020</ele>
        <time>2019-03-11T14:55:03Z</time>
      </trkpt>
      <trkpt lat="43.64893" lon="6.26807">
        <ele>1019</ele>
        <time>2019-03-11T14:55:09Z</time>
      </trkpt>
      <trkpt lat="43.64892" lon="6.26818">
        <ele>1017</ele>
        <time>2019-03-11T14:55:22Z</time>
      </trkpt>
      <trkpt lat="43.6489" lon="6.26822">
        <ele>1021</ele>
        <time>2019-03-11T14:55:39Z</time>
      </trkpt>
      <trkpt lat="43.64893" lon="6.26823">
        <ele>1026</ele>
        <time>2019-03-11T14:56:17Z</time>
      </trkpt>
      <trkpt lat="43.64889" lon="6.26824">
        <ele>1027</ele>
        <time>2019-03-11T14:56:57Z</time>
      </trkpt>
      <trkpt lat="43.64889" lon="6.26824">
        <ele>1024</ele>
        <time>2019-03-11T14:58:09Z</time>
      </trkpt>
      <trkpt lat="43.64885" lon="6.26822">
        <ele>1024</ele>
        <time>2019-03-11T14:58:17Z</time>
      </trkpt>
      <trkpt lat="43.64885" lon="6.26835">
        <ele>1026</ele>
        <time>2019-03-11T14:58:48Z</time>
      </trkpt>
      <trkpt lat="43.64887" lon="6.26842">
        <ele>1029</ele>
        <time>2019-03-11T14:58:52Z</time>
      </trkpt>
      <trkpt lat="43.64887" lon="6.26848">
        <ele>1030</ele>
        <time>2019-03-11T14:58:54Z</time>
      </trkpt>
      <trkpt lat="43.64884" lon="6.26853">
        <ele>1030</ele>
        <time>2019-03-11T14:58:58Z</time>
      </trkpt>
      <trkpt lat="43.6488" lon="6.26854">
        <ele>1030</ele>
        <time>2019-03-11T14:59:03Z</time>
      </trkpt>
      <trkpt lat="43.64877" lon="6.26867">
        <ele>1030</ele>
        <time>2019-03-11T14:59:16Z</time>
      </trkpt>
      <trkpt lat="43.64872" lon="6.26875">
        <ele>1031</ele>
        <time>2019-03-11T14:59:22Z</time>
      </trkpt>
      <trkpt lat="43.64871" lon="6.26881">
        <ele>1032</ele>
        <time>2019-03-11T14:59:27Z</time>
      </trkpt>
      <trkpt lat="43.6487" lon="6.26884">
        <ele>1031</ele>
        <time>2019-03-11T14:59:33Z</time>
      </trkpt>
      <trkpt lat="43.64867" lon="6.26884">
        <ele>1030</ele>
        <time>2019-03-11T14:59:40Z</time>
      </trkpt>
      <trkpt lat="43.64867" lon="6.26889">
        <ele>1030</ele>
        <time>2019-03-11T14:59:43Z</time>
      </trkpt>
      <trkpt lat="43.64866" lon="6.26893">
        <ele>1029</ele>
        <time>2019-03-11T14:59:49Z</time>
      </trkpt>
      <trkpt lat="43.64865" lon="6.26898">
        <ele>1026</ele>
        <time>2019-03-11T14:59:54Z</time>
      </trkpt>
      <trkpt lat="43.64862" lon="6.26901">
        <ele>1022</ele>
        <time>2019-03-11T15:00:00Z</time>
      </trkpt>
      <trkpt lat="43.6486" lon="6.26904">
        <ele>1021</ele>
        <time>2019-03-11T15:00:04Z</time>
      </trkpt>
      <trkpt lat="43.64859" lon="6.26908">
        <ele>1021</ele>
        <time>2019-03-11T15:00:07Z</time>
      </trkpt>
      <trkpt lat="43.64856" lon="6.26916">
        <ele>1022</ele>
        <time>2019-03-11T15:00:11Z</time>
      </trkpt>
      <trkpt lat="43.64856" lon="6.26923">
        <ele>1026</ele>
        <time>2019-03-11T15:00:17Z</time>
      </trkpt>
      <trkpt lat="43.64857" lon="6.26929">
        <ele>1026</ele>
        <time>2019-03-11T15:00:23Z</time>
      </trkpt>
      <trkpt lat="43.64852" lon="6.26932">
        <ele>1024</ele>
        <time>2019-03-11T15:00:28Z</time>
      </trkpt>
      <trkpt lat="43.64848" lon="6.26938">
        <ele>1024</ele>
        <time>2019-03-11T15:00:38Z</time>
      </trkpt>
      <trkpt lat="43.64845" lon="6.26943">
        <ele>1020</ele>
        <time>2019-03-11T15:00:43Z</time>
      </trkpt>
      <trkpt lat="43.64841" lon="6.26955">
        <ele>1022</ele>
        <time>2019-03-11T15:00:50Z</time>
      </trkpt>
      <trkpt lat="43.64838" lon="6.26958">
        <ele>1021</ele>
        <time>2019-03-11T15:00:54Z</time>
      </trkpt>
      <trkpt lat="43.64838" lon="6.26965">
        <ele>1019</ele>
        <time>2019-03-11T15:01:01Z</time>
      </trkpt>
      <trkpt lat="43.64835" lon="6.26971">
        <ele>1018</ele>
        <time>2019-03-11T15:01:07Z</time>
      </trkpt>
      <trkpt lat="43.64833" lon="6.26978">
        <ele>1019</ele>
        <time>2019-03-11T15:01:11Z</time>
      </trkpt>
      <trkpt lat="43.64829" lon="6.26981">
        <ele>1019</ele>
        <time>2019-03-11T15:01:21Z</time>
      </trkpt>
      <trkpt lat="43.64825" lon="6.26986">
        <ele>1017</ele>
        <time>2019-03-11T15:01:25Z</time>
      </trkpt>
      <trkpt lat="43.64823" lon="6.2699">
        <ele>1015</ele>
        <time>2019-03-11T15:01:31Z</time>
      </trkpt>
      <trkpt lat="43.6482" lon="6.26995">
        <ele>1015</ele>
        <time>2019-03-11T15:01:37Z</time>
      </trkpt>
      <trkpt lat="43.64817" lon="6.27">
        <ele>1016</ele>
        <time>2019-03-11T15:01:42Z</time>
      </trkpt>
      <trkpt lat="43.64808" lon="6.27006">
        <ele>1015</ele>
        <time>2019-03-11T15:01:51Z</time>
      </trkpt>
      <trkpt lat="43.64805" lon="6.27011">
        <ele>1018</ele>
        <time>2019-03-11T15:01:55Z</time>
      </trkpt>
      <trkpt lat="43.64804" lon="6.27017">
        <ele>1021</ele>
        <time>2019-03-11T15:01:59Z</time>
      </trkpt>
      <trkpt lat="43.64802" lon="6.2702">
        <ele>1022</ele>
        <time>2019-03-11T15:02:02Z</time>
      </trkpt>
      <trkpt lat="43.648" lon="6.27025">
        <ele>1022</ele>
        <time>2019-03-11T15:02:05Z</time>
      </trkpt>
      <trkpt lat="43.64798" lon="6.27031">
        <ele>1022</ele>
        <time>2019-03-11T15:02:09Z</time>
      </trkpt>
      <trkpt lat="43.64794" lon="6.27036">
        <ele>1022</ele>
        <time>2019-03-11T15:02:15Z</time>
      </trkpt>
      <trkpt lat="43.64791" lon="6.27043">
        <ele>1022</ele>
        <time>2019-03-11T15:02:23Z</time>
      </trkpt>
      <trkpt lat="43.64787" lon="6.27047">
        <ele>1021</ele>
        <time>2019-03-11T15:02:28Z</time>
      </trkpt>
      <trkpt lat="43.64785" lon="6.2705">
        <ele>1022</ele>
        <time>2019-03-11T15:02:31Z</time>
      </trkpt>
      <trkpt lat="43.64781" lon="6.27053">
        <ele>1024</ele>
        <time>2019-03-11T15:02:36Z</time>
      </trkpt>
      <trkpt lat="43.64778" lon="6.27056">
        <ele>1026</ele>
        <time>2019-03-11T15:02:40Z</time>
      </trkpt>
      <trkpt lat="43.64773" lon="6.27057">
        <ele>1024</ele>
        <time>2019-03-11T15:02:43Z</time>
      </trkpt>
      <trkpt lat="43.64765" lon="6.27067">
        <ele>1023</ele>
        <time>2019-03-11T15:02:56Z</time>
      </trkpt>
      <trkpt lat="43.64764" lon="6.27061">
        <ele>1023</ele>
        <time>2019-03-11T15:02:59Z</time>
      </trkpt>
      <trkpt lat="43.6476" lon="6.27062">
        <ele>1019</ele>
        <time>2019-03-11T15:03:03Z</time>
      </trkpt>
      <trkpt lat="43.64755" lon="6.27062">
        <ele>1018</ele>
        <time>2019-03-11T15:03:08Z</time>
      </trkpt>
      <trkpt lat="43.64751" lon="6.27062">
        <ele>1020</ele>
        <time>2019-03-11T15:03:12Z</time>
      </trkpt>
      <trkpt lat="43.64747" lon="6.2706">
        <ele>1019</ele>
        <time>2019-03-11T15:03:18Z</time>
      </trkpt>
      <trkpt lat="43.64739" lon="6.27064">
        <ele>1019</ele>
        <time>2019-03-11T15:03:26Z</time>
      </trkpt>
      <trkpt lat="43.64733" lon="6.27066">
        <ele>1020</ele>
        <time>2019-03-11T15:03:33Z</time>
      </trkpt>
      <trkpt lat="43.6473" lon="6.2707">
        <ele>1023</ele>
        <time>2019-03-11T15:03:37Z</time>
      </trkpt>
      <trkpt lat="43.64726" lon="6.27076">
        <ele>1026</ele>
        <time>2019-03-11T15:03:43Z</time>
      </trkpt>
      <trkpt lat="43.64722" lon="6.27076">
        <ele>1027</ele>
        <time>2019-03-11T15:03:49Z</time>
      </trkpt>
      <trkpt lat="43.64717" lon="6.27078">
        <ele>1025</ele>
        <time>2019-03-11T15:03:57Z</time>
      </trkpt>
      <trkpt lat="43.64712" lon="6.27081">
        <ele>1025</ele>
        <time>2019-03-11T15:04:03Z</time>
      </trkpt>
      <trkpt lat="43.64706" lon="6.27092">
        <ele>1025</ele>
        <time>2019-03-11T15:04:09Z</time>
      </trkpt>
      <trkpt lat="43.64699" lon="6.27106">
        <ele>1028</ele>
        <time>2019-03-11T15:04:22Z</time>
      </trkpt>
      <trkpt lat="43.64694" lon="6.2711">
        <ele>1027</ele>
        <time>2019-03-11T15:04:28Z</time>
      </trkpt>
      <trkpt lat="43.6469" lon="6.27115">
        <ele>1023</ele>
        <time>2019-03-11T15:04:33Z</time>
      </trkpt>
      <trkpt lat="43.64687" lon="6.27122">
        <ele>1023</ele>
        <time>2019-03-11T15:04:41Z</time>
      </trkpt>
      <trkpt lat="43.6468" lon="6.27126">
        <ele>1022</ele>
        <time>2019-03-11T15:04:47Z</time>
      </trkpt>
      <trkpt lat="43.64676" lon="6.27133">
        <ele>1022</ele>
        <time>2019-03-11T15:04:54Z</time>
      </trkpt>
      <trkpt lat="43.64673" lon="6.27139">
        <ele>1024</ele>
        <time>2019-03-11T15:04:58Z</time>
      </trkpt>
      <trkpt lat="43.64667" lon="6.27142">
        <ele>1023</ele>
        <time>2019-03-11T15:05:02Z</time>
      </trkpt>
      <trkpt lat="43.64657" lon="6.27155">
        <ele>1019</ele>
        <time>2019-03-11T15:05:21Z</time>
      </trkpt>
      <trkpt lat="43.64658" lon="6.27162">
        <ele>1020</ele>
        <time>2019-03-11T15:05:27Z</time>
      </trkpt>
      <trkpt lat="43.64649" lon="6.27171">
        <ele>1021</ele>
        <time>2019-03-11T15:05:57Z</time>
      </trkpt>
      <trkpt lat="43.64647" lon="6.27175">
        <ele>1020</ele>
        <time>2019-03-11T15:06:09Z</time>
      </trkpt>
      <trkpt lat="43.64641" lon="6.27176">
        <ele>1020</ele>
        <time>2019-03-11T15:06:13Z</time>
      </trkpt>
      <trkpt lat="43.64638" lon="6.27181">
        <ele>1022</ele>
        <time>2019-03-11T15:06:19Z</time>
      </trkpt>
      <trkpt lat="43.64636" lon="6.27186">
        <ele>1027</ele>
        <time>2019-03-11T15:06:29Z</time>
      </trkpt>
      <trkpt lat="43.64625" lon="6.27197">
        <ele>1028</ele>
        <time>2019-03-11T15:06:46Z</time>
      </trkpt>
      <trkpt lat="43.6462" lon="6.27197">
        <ele>1032</ele>
        <time>2019-03-11T15:07:23Z</time>
      </trkpt>
      <trkpt lat="43.64621" lon="6.27198">
        <ele>1031</ele>
        <time>2019-03-11T15:08:38Z</time>
      </trkpt>
      <trkpt lat="43.64621" lon="6.27202">
        <ele>1031</ele>
        <time>2019-03-11T15:09:03Z</time>
      </trkpt>
      <trkpt lat="43.6462" lon="6.27206">
        <ele>1031</ele>
        <time>2019-03-11T15:09:18Z</time>
      </trkpt>
      <trkpt lat="43.64617" lon="6.27207">
        <ele>1032</ele>
        <time>2019-03-11T15:09:32Z</time>
      </trkpt>
      <trkpt lat="43.64613" lon="6.2721">
        <ele>1033</ele>
        <time>2019-03-11T15:09:39Z</time>
      </trkpt>
      <trkpt lat="43.64606" lon="6.27211">
        <ele>1034</ele>
        <time>2019-03-11T15:09:45Z</time>
      </trkpt>
      <trkpt lat="43.64602" lon="6.27211">
        <ele>1033</ele>
        <time>2019-03-11T15:09:49Z</time>
      </trkpt>
      <trkpt lat="43.64596" lon="6.27211">
        <ele>1034</ele>
        <time>2019-03-11T15:09:56Z</time>
      </trkpt>
      <trkpt lat="43.64594" lon="6.27213">
        <ele>1034</ele>
        <time>2019-03-11T15:10:02Z</time>
      </trkpt>
      <trkpt lat="43.64589" lon="6.27214">
        <ele>1034</ele>
        <time>2019-03-11T15:10:13Z</time>
      </trkpt>
      <trkpt lat="43.64583" lon="6.27216">
        <ele>1036</ele>
        <time>2019-03-11T15:10:28Z</time>
      </trkpt>
      <trkpt lat="43.64579" lon="6.27217">
        <ele>1041</ele>
        <time>2019-03-11T15:10:38Z</time>
      </trkpt>
      <trkpt lat="43.64577" lon="6.27219">
        <ele>1041</ele>
        <time>2019-03-11T15:10:52Z</time>
      </trkpt>
      <trkpt lat="43.6457" lon="6.27219">
        <ele>1041</ele>
        <time>2019-03-11T15:10:59Z</time>
      </trkpt>
      <trkpt lat="43.64565" lon="6.27224">
        <ele>1041</ele>
        <time>2019-03-11T15:11:04Z</time>
      </trkpt>
      <trkpt lat="43.64562" lon="6.27228">
        <ele>1042</ele>
        <time>2019-03-11T15:11:16Z</time>
      </trkpt>
      <trkpt lat="43.6456" lon="6.27224">
        <ele>1042</ele>
        <time>2019-03-11T15:11:24Z</time>
      </trkpt>
      <trkpt lat="43.64553" lon="6.27223">
        <ele>1042</ele>
        <time>2019-03-11T15:11:40Z</time>
      </trkpt>
      <trkpt lat="43.64546" lon="6.27221">
        <ele>1045</ele>
        <time>2019-03-11T15:11:49Z</time>
      </trkpt>
      <trkpt lat="43.64523" lon="6.2723">
        <ele>1051</ele>
        <time>2019-03-11T15:12:34Z</time>
      </trkpt>
      <trkpt lat="43.64514" lon="6.27236">
        <ele>1051</ele>
        <time>2019-03-11T15:12:47Z</time>
      </trkpt>
      <trkpt lat="43.64509" lon="6.27236">
        <ele>1058</ele>
        <time>2019-03-11T15:13:08Z</time>
      </trkpt>
      <trkpt lat="43.64504" lon="6.27236">
        <ele>1058</ele>
        <time>2019-03-11T15:13:16Z</time>
      </trkpt>
      <trkpt lat="43.645" lon="6.27239">
        <ele>1058</ele>
        <time>2019-03-11T15:13:21Z</time>
      </trkpt>
      <trkpt lat="43.64501" lon="6.27244">
        <ele>1059</ele>
        <time>2019-03-11T15:13:26Z</time>
      </trkpt>
      <trkpt lat="43.64496" lon="6.27243">
        <ele>1059</ele>
        <time>2019-03-11T15:13:30Z</time>
      </trkpt>
      <trkpt lat="43.64492" lon="6.27243">
        <ele>1059</ele>
        <time>2019-03-11T15:13:34Z</time>
      </trkpt>
      <trkpt lat="43.64486" lon="6.27238">
        <ele>1060</ele>
        <time>2019-03-11T15:13:45Z</time>
      </trkpt>
      <trkpt lat="43.64483" lon="6.27238">
        <ele>1060</ele>
        <time>2019-03-11T15:13:48Z</time>
      </trkpt>
      <trkpt lat="43.64481" lon="6.27234">
        <ele>1058</ele>
        <time>2019-03-11T15:13:51Z</time>
      </trkpt>
      <trkpt lat="43.64477" lon="6.27237">
        <ele>1058</ele>
        <time>2019-03-11T15:13:55Z</time>
      </trkpt>
      <trkpt lat="43.64474" lon="6.27236">
        <ele>1060</ele>
        <time>2019-03-11T15:13:59Z</time>
      </trkpt>
      <trkpt lat="43.6447" lon="6.2724">
        <ele>1064</ele>
        <time>2019-03-11T15:14:03Z</time>
      </trkpt>
      <trkpt lat="43.64467" lon="6.27239">
        <ele>1067</ele>
        <time>2019-03-11T15:14:06Z</time>
      </trkpt>
      <trkpt lat="43.64466" lon="6.27242">
        <ele>1068</ele>
        <time>2019-03-11T15:14:09Z</time>
      </trkpt>
      <trkpt lat="43.64463" lon="6.27244">
        <ele>1068</ele>
        <time>2019-03-11T15:14:13Z</time>
      </trkpt>
      <trkpt lat="43.64461" lon="6.27257">
        <ele>1071</ele>
        <time>2019-03-11T15:14:25Z</time>
      </trkpt>
      <trkpt lat="43.64455" lon="6.27263">
        <ele>1074</ele>
        <time>2019-03-11T15:14:34Z</time>
      </trkpt>
      <trkpt lat="43.64454" lon="6.27267">
        <ele>1074</ele>
        <time>2019-03-11T15:14:37Z</time>
      </trkpt>
      <trkpt lat="43.64452" lon="6.27271">
        <ele>1076</ele>
        <time>2019-03-11T15:14:43Z</time>
      </trkpt>
      <trkpt lat="43.64448" lon="6.27269">
        <ele>1076</ele>
        <time>2019-03-11T15:14:48Z</time>
      </trkpt>
      <trkpt lat="43.64451" lon="6.27269">
        <ele>1076</ele>
        <time>2019-03-11T15:15:11Z</time>
      </trkpt>
      <trkpt lat="43.64452" lon="6.27269">
        <ele>1077</ele>
        <time>2019-03-11T15:15:59Z</time>
      </trkpt>
      <trkpt lat="43.6445" lon="6.27269">
        <ele>1077</ele>
        <time>2019-03-11T15:16:14Z</time>
      </trkpt>
      <trkpt lat="43.64449" lon="6.27272">
        <ele>1078</ele>
        <time>2019-03-11T15:17:05Z</time>
      </trkpt>
      <trkpt lat="43.64449" lon="6.27269">
        <ele>1077</ele>
        <time>2019-03-11T15:17:35Z</time>
      </trkpt>
      <trkpt lat="43.6445" lon="6.27265">
        <ele>1077</ele>
        <time>2019-03-11T15:17:40Z</time>
      </trkpt>
      <trkpt lat="43.6445" lon="6.27272">
        <ele>1080</ele>
        <time>2019-03-11T15:18:25Z</time>
      </trkpt>
      <trkpt lat="43.6445" lon="6.27277">
        <ele>1080</ele>
        <time>2019-03-11T15:18:45Z</time>
      </trkpt>
      <trkpt lat="43.64453" lon="6.27275">
        <ele>1081</ele>
        <time>2019-03-11T15:18:48Z</time>
      </trkpt>
      <trkpt lat="43.64455" lon="6.27271">
        <ele>1084</ele>
        <time>2019-03-11T15:18:51Z</time>
      </trkpt>
      <trkpt lat="43.64458" lon="6.27272">
        <ele>1086</ele>
        <time>2019-03-11T15:18:53Z</time>
      </trkpt>
      <trkpt lat="43.6446" lon="6.27275">
        <ele>1086</ele>
        <time>2019-03-11T15:19:00Z</time>
      </trkpt>
      <trkpt lat="43.64459" lon="6.27279">
        <ele>1084</ele>
        <time>2019-03-11T15:19:03Z</time>
      </trkpt>
      <trkpt lat="43.64461" lon="6.27285">
        <ele>1082</ele>
        <time>2019-03-11T15:19:11Z</time>
      </trkpt>
      <trkpt lat="43.64456" lon="6.27291">
        <ele>1080</ele>
        <time>2019-03-11T15:19:16Z</time>
      </trkpt>
      <trkpt lat="43.64452" lon="6.27293">
        <ele>1079</ele>
        <time>2019-03-11T15:19:33Z</time>
      </trkpt>
      <trkpt lat="43.64446" lon="6.27295">
        <ele>1078</ele>
        <time>2019-03-11T15:19:54Z</time>
      </trkpt>
      <trkpt lat="43.64448" lon="6.27306">
        <ele>1077</ele>
        <time>2019-03-11T15:20:05Z</time>
      </trkpt>
      <trkpt lat="43.64446" lon="6.27317">
        <ele>1069</ele>
        <time>2019-03-11T15:20:17Z</time>
      </trkpt>
      <trkpt lat="43.64442" lon="6.27318">
        <ele>1068</ele>
        <time>2019-03-11T15:20:26Z</time>
      </trkpt>
      <trkpt lat="43.64434" lon="6.27322">
        <ele>1066</ele>
        <time>2019-03-11T15:20:34Z</time>
      </trkpt>
      <trkpt lat="43.64433" lon="6.2733">
        <ele>1067</ele>
        <time>2019-03-11T15:20:42Z</time>
      </trkpt>
      <trkpt lat="43.6443" lon="6.27334">
        <ele>1067</ele>
        <time>2019-03-11T15:20:46Z</time>
      </trkpt>
      <trkpt lat="43.64428" lon="6.27337">
        <ele>1069</ele>
        <time>2019-03-11T15:20:49Z</time>
      </trkpt>
      <trkpt lat="43.64427" lon="6.27344">
        <ele>1068</ele>
        <time>2019-03-11T15:20:56Z</time>
      </trkpt>
      <trkpt lat="43.64424" lon="6.27347">
        <ele>1071</ele>
        <time>2019-03-11T15:21:00Z</time>
      </trkpt>
      <trkpt lat="43.64415" lon="6.2735">
        <ele>1067</ele>
        <time>2019-03-11T15:21:17Z</time>
      </trkpt>
      <trkpt lat="43.64413" lon="6.27355">
        <ele>1068</ele>
        <time>2019-03-11T15:21:21Z</time>
      </trkpt>
      <trkpt lat="43.64409" lon="6.27356">
        <ele>1067</ele>
        <time>2019-03-11T15:21:25Z</time>
      </trkpt>
      <trkpt lat="43.64407" lon="6.27361">
        <ele>1063</ele>
        <time>2019-03-11T15:21:33Z</time>
      </trkpt>
      <trkpt lat="43.64403" lon="6.27383">
        <ele>1062</ele>
        <time>2019-03-11T15:21:48Z</time>
      </trkpt>
      <trkpt lat="43.64398" lon="6.27392">
        <ele>1061</ele>
        <time>2019-03-11T15:21:53Z</time>
      </trkpt>
      <trkpt lat="43.64391" lon="6.274">
        <ele>1063</ele>
        <time>2019-03-11T15:21:59Z</time>
      </trkpt>
      <trkpt lat="43.6439" lon="6.27403">
        <ele>1063</ele>
        <time>2019-03-11T15:22:02Z</time>
      </trkpt>
      <trkpt lat="43.64386" lon="6.27404">
        <ele>1063</ele>
        <time>2019-03-11T15:22:04Z</time>
      </trkpt>
      <trkpt lat="43.64384" lon="6.27408">
        <ele>1062</ele>
        <time>2019-03-11T15:22:07Z</time>
      </trkpt>
      <trkpt lat="43.64372" lon="6.27409">
        <ele>1062</ele>
        <time>2019-03-11T15:22:17Z</time>
      </trkpt>
      <trkpt lat="43.64369" lon="6.27409">
        <ele>1061</ele>
        <time>2019-03-11T15:22:22Z</time>
      </trkpt>
      <trkpt lat="43.64366" lon="6.2741">
        <ele>1061</ele>
        <time>2019-03-11T15:22:24Z</time>
      </trkpt>
      <trkpt lat="43.64364" lon="6.27412">
        <ele>1060</ele>
        <time>2019-03-11T15:22:26Z</time>
      </trkpt>
      <trkpt lat="43.64359" lon="6.27419">
        <ele>1063</ele>
        <time>2019-03-11T15:22:29Z</time>
      </trkpt>
      <trkpt lat="43.64355" lon="6.27421">
        <ele>1063</ele>
        <time>2019-03-11T15:22:34Z</time>
      </trkpt>
      <trkpt lat="43.64354" lon="6.27426">
        <ele>1059</ele>
        <time>2019-03-11T15:22:38Z</time>
      </trkpt>
      <trkpt lat="43.64352" lon="6.27431">
        <ele>1057</ele>
        <time>2019-03-11T15:22:41Z</time>
      </trkpt>
      <trkpt lat="43.64348" lon="6.27437">
        <ele>1058</ele>
        <time>2019-03-11T15:22:49Z</time>
      </trkpt>
      <trkpt lat="43.64343" lon="6.27438">
        <ele>1054</ele>
        <time>2019-03-11T15:22:56Z</time>
      </trkpt>
      <trkpt lat="43.6434" lon="6.27444">
        <ele>1048</ele>
        <time>2019-03-11T15:23:09Z</time>
      </trkpt>
      <trkpt lat="43.64337" lon="6.27452">
        <ele>1047</ele>
        <time>2019-03-11T15:23:13Z</time>
      </trkpt>
      <trkpt lat="43.64333" lon="6.27457">
        <ele>1048</ele>
        <time>2019-03-11T15:23:16Z</time>
      </trkpt>
      <trkpt lat="43.64328" lon="6.27462">
        <ele>1048</ele>
        <time>2019-03-11T15:23:22Z</time>
      </trkpt>
      <trkpt lat="43.6432" lon="6.27467">
        <ele>1045</ele>
        <time>2019-03-11T15:23:30Z</time>
      </trkpt>
      <trkpt lat="43.6431" lon="6.27477">
        <ele>1044</ele>
        <time>2019-03-11T15:23:37Z</time>
      </trkpt>
      <trkpt lat="43.64296" lon="6.27485">
        <ele>1044</ele>
        <time>2019-03-11T15:23:49Z</time>
      </trkpt>
      <trkpt lat="43.64295" lon="6.27491">
        <ele>1043</ele>
        <time>2019-03-11T15:23:52Z</time>
      </trkpt>
      <trkpt lat="43.64292" lon="6.27495">
        <ele>1044</ele>
        <time>2019-03-11T15:23:55Z</time>
      </trkpt>
      <trkpt lat="43.64289" lon="6.275">
        <ele>1043</ele>
        <time>2019-03-11T15:23:57Z</time>
      </trkpt>
      <trkpt lat="43.64288" lon="6.27507">
        <ele>1040</ele>
        <time>2019-03-11T15:24:14Z</time>
      </trkpt>
      <trkpt lat="43.64291" lon="6.27516">
        <ele>1041</ele>
        <time>2019-03-11T15:24:31Z</time>
      </trkpt>
      <trkpt lat="43.64288" lon="6.27525">
        <ele>1039</ele>
        <time>2019-03-11T15:24:40Z</time>
      </trkpt>
      <trkpt lat="43.64286" lon="6.2753">
        <ele>1038</ele>
        <time>2019-03-11T15:24:44Z</time>
      </trkpt>
      <trkpt lat="43.64276" lon="6.27542">
        <ele>1040</ele>
        <time>2019-03-11T15:25:02Z</time>
      </trkpt>
      <trkpt lat="43.64276" lon="6.27553">
        <ele>1040</ele>
        <time>2019-03-11T15:25:07Z</time>
      </trkpt>
      <trkpt lat="43.64271" lon="6.27558">
        <ele>1040</ele>
        <time>2019-03-11T15:25:11Z</time>
      </trkpt>
      <trkpt lat="43.64272" lon="6.27565">
        <ele>1039</ele>
        <time>2019-03-11T15:25:19Z</time>
      </trkpt>
      <trkpt lat="43.64269" lon="6.27569">
        <ele>1038</ele>
        <time>2019-03-11T15:25:24Z</time>
      </trkpt>
      <trkpt lat="43.6427" lon="6.27575">
        <ele>1037</ele>
        <time>2019-03-11T15:25:29Z</time>
      </trkpt>
      <trkpt lat="43.64265" lon="6.27582">
        <ele>1036</ele>
        <time>2019-03-11T15:25:35Z</time>
      </trkpt>
      <trkpt lat="43.64265" lon="6.27588">
        <ele>1035</ele>
        <time>2019-03-11T15:25:40Z</time>
      </trkpt>
      <trkpt lat="43.64263" lon="6.27593">
        <ele>1036</ele>
        <time>2019-03-11T15:25:43Z</time>
      </trkpt>
      <trkpt lat="43.6426" lon="6.27596">
        <ele>1036</ele>
        <time>2019-03-11T15:25:47Z</time>
      </trkpt>
      <trkpt lat="43.64257" lon="6.27601">
        <ele>1036</ele>
        <time>2019-03-11T15:25:50Z</time>
      </trkpt>
      <trkpt lat="43.64254" lon="6.27609">
        <ele>1039</ele>
        <time>2019-03-11T15:25:55Z</time>
      </trkpt>
      <trkpt lat="43.64245" lon="6.27616">
        <ele>1034</ele>
        <time>2019-03-11T15:26:11Z</time>
      </trkpt>
      <trkpt lat="43.64244" lon="6.27623">
        <ele>1035</ele>
        <time>2019-03-11T15:26:16Z</time>
      </trkpt>
      <trkpt lat="43.64239" lon="6.27633">
        <ele>1036</ele>
        <time>2019-03-11T15:26:21Z</time>
      </trkpt>
      <trkpt lat="43.64231" lon="6.27638">
        <ele>1036</ele>
        <time>2019-03-11T15:26:29Z</time>
      </trkpt>
      <trkpt lat="43.64229" lon="6.27647">
        <ele>1031</ele>
        <time>2019-03-11T15:26:40Z</time>
      </trkpt>
      <trkpt lat="43.64224" lon="6.27654">
        <ele>1031</ele>
        <time>2019-03-11T15:26:45Z</time>
      </trkpt>
      <trkpt lat="43.64219" lon="6.2766">
        <ele>1031</ele>
        <time>2019-03-11T15:26:53Z</time>
      </trkpt>
      <trkpt lat="43.64214" lon="6.27665">
        <ele>1029</ele>
        <time>2019-03-11T15:26:58Z</time>
      </trkpt>
      <trkpt lat="43.64211" lon="6.27668">
        <ele>1029</ele>
        <time>2019-03-11T15:27:03Z</time>
      </trkpt>
      <trkpt lat="43.64205" lon="6.27675">
        <ele>1028</ele>
        <time>2019-03-11T15:27:12Z</time>
      </trkpt>
      <trkpt lat="43.64201" lon="6.2768">
        <ele>1027</ele>
        <time>2019-03-11T15:27:24Z</time>
      </trkpt>
      <trkpt lat="43.64194" lon="6.27681">
        <ele>1029</ele>
        <time>2019-03-11T15:27:37Z</time>
      </trkpt>
      <trkpt lat="43.64193" lon="6.27687">
        <ele>1028</ele>
        <time>2019-03-11T15:27:43Z</time>
      </trkpt>
      <trkpt lat="43.64194" lon="6.27693">
        <ele>1030</ele>
        <time>2019-03-11T15:27:48Z</time>
      </trkpt>
      <trkpt lat="43.64193" lon="6.27698">
        <ele>1031</ele>
        <time>2019-03-11T15:27:51Z</time>
      </trkpt>
      <trkpt lat="43.64185" lon="6.27709">
        <ele>1031</ele>
        <time>2019-03-11T15:27:57Z</time>
      </trkpt>
      <trkpt lat="43.64183" lon="6.27715">
        <ele>1033</ele>
        <time>2019-03-11T15:28:01Z</time>
      </trkpt>
      <trkpt lat="43.64182" lon="6.27721">
        <ele>1034</ele>
        <time>2019-03-11T15:28:04Z</time>
      </trkpt>
      <trkpt lat="43.64179" lon="6.27727">
        <ele>1034</ele>
        <time>2019-03-11T15:28:10Z</time>
      </trkpt>
      <trkpt lat="43.64171" lon="6.27732">
        <ele>1033</ele>
        <time>2019-03-11T15:28:18Z</time>
      </trkpt>
      <trkpt lat="43.64168" lon="6.27735">
        <ele>1032</ele>
        <time>2019-03-11T15:28:20Z</time>
      </trkpt>
      <trkpt lat="43.64165" lon="6.2774">
        <ele>1038</ele>
        <time>2019-03-11T15:28:43Z</time>
      </trkpt>
      <trkpt lat="43.6416" lon="6.27749">
        <ele>1036</ele>
        <time>2019-03-11T15:29:10Z</time>
      </trkpt>
      <trkpt lat="43.64157" lon="6.27755">
        <ele>1034</ele>
        <time>2019-03-11T15:29:13Z</time>
      </trkpt>
      <trkpt lat="43.64156" lon="6.27762">
        <ele>1034</ele>
        <time>2019-03-11T15:29:17Z</time>
      </trkpt>
      <trkpt lat="43.64152" lon="6.27767">
        <ele>1037</ele>
        <time>2019-03-11T15:29:20Z</time>
      </trkpt>
      <trkpt lat="43.6415" lon="6.27772">
        <ele>1039</ele>
        <time>2019-03-11T15:29:24Z</time>
      </trkpt>
      <trkpt lat="43.64141" lon="6.27784">
        <ele>1036</ele>
        <time>2019-03-11T15:29:32Z</time>
      </trkpt>
      <trkpt lat="43.64138" lon="6.27789">
        <ele>1036</ele>
        <time>2019-03-11T15:29:36Z</time>
      </trkpt>
      <trkpt lat="43.64132" lon="6.2779">
        <ele>1035</ele>
        <time>2019-03-11T15:29:42Z</time>
      </trkpt>
      <trkpt lat="43.64129" lon="6.278">
        <ele>1036</ele>
        <time>2019-03-11T15:29:59Z</time>
      </trkpt>
      <trkpt lat="43.64093" lon="6.27831">
        <ele>1040</ele>
        <time>2019-03-11T15:30:34Z</time>
      </trkpt>
      <trkpt lat="43.64087" lon="6.27842">
        <ele>1036</ele>
        <time>2019-03-11T15:30:48Z</time>
      </trkpt>
      <trkpt lat="43.64076" lon="6.27863">
        <ele>1040</ele>
        <time>2019-03-11T15:31:09Z</time>
      </trkpt>
      <trkpt lat="43.6406" lon="6.27877">
        <ele>1041</ele>
        <time>2019-03-11T15:31:26Z</time>
      </trkpt>
      <trkpt lat="43.6405" lon="6.27883">
        <ele>1042</ele>
        <time>2019-03-11T15:31:35Z</time>
      </trkpt>
      <trkpt lat="43.64045" lon="6.27894">
        <ele>1044</ele>
        <time>2019-03-11T15:31:43Z</time>
      </trkpt>
      <trkpt lat="43.64041" lon="6.27904">
        <ele>1050</ele>
        <time>2019-03-11T15:32:02Z</time>
      </trkpt>
      <trkpt lat="43.6403" lon="6.27931">
        <ele>1052</ele>
        <time>2019-03-11T15:32:29Z</time>
      </trkpt>
      <trkpt lat="43.64029" lon="6.27945">
        <ele>1056</ele>
        <time>2019-03-11T15:32:38Z</time>
      </trkpt>
      <trkpt lat="43.6403" lon="6.27959">
        <ele>1059</ele>
        <time>2019-03-11T15:32:47Z</time>
      </trkpt>
      <trkpt lat="43.6402" lon="6.27963">
        <ele>1060</ele>
        <time>2019-03-11T15:32:59Z</time>
      </trkpt>
      <trkpt lat="43.64012" lon="6.27967">
        <ele>1061</ele>
        <time>2019-03-11T15:33:12Z</time>
      </trkpt>
      <trkpt lat="43.64008" lon="6.27977">
        <ele>1063</ele>
        <time>2019-03-11T15:33:24Z</time>
      </trkpt>
      <trkpt lat="43.63998" lon="6.27978">
        <ele>1063</ele>
        <time>2019-03-11T15:33:37Z</time>
      </trkpt>
      <trkpt lat="43.63995" lon="6.27983">
        <ele>1066</ele>
        <time>2019-03-11T15:35:46Z</time>
      </trkpt>
      <trkpt lat="43.63995" lon="6.27987">
        <ele>1065</ele>
        <time>2019-03-11T15:35:48Z</time>
      </trkpt>
      <trkpt lat="43.64003" lon="6.27982">
        <ele>1059</ele>
        <time>2019-03-11T15:39:27Z</time>
      </trkpt>
      <trkpt lat="43.64012" lon="6.27975">
        <ele>1059</ele>
        <time>2019-03-11T15:39:33Z</time>
      </trkpt>
      <trkpt lat="43.64016" lon="6.27964">
        <ele>1062</ele>
        <time>2019-03-11T15:39:43Z</time>
      </trkpt>
      <trkpt lat="43.64024" lon="6.27955">
        <ele>1064</ele>
        <time>2019-03-11T15:40:04Z</time>
      </trkpt>
      <trkpt lat="43.64032" lon="6.27949">
        <ele>1063</ele>
        <time>2019-03-11T15:40:13Z</time>
      </trkpt>
      <trkpt lat="43.64042" lon="6.27944">
        <ele>1061</ele>
        <time>2019-03-11T15:40:23Z</time>
      </trkpt>
      <trkpt lat="43.64039" lon="6.27931">
        <ele>1058</ele>
        <time>2019-03-11T15:40:32Z</time>
      </trkpt>
      <trkpt lat="43.64048" lon="6.27924">
        <ele>1058</ele>
        <time>2019-03-11T15:40:41Z</time>
      </trkpt>
      <trkpt lat="43.64052" lon="6.27896">
        <ele>1057</ele>
        <time>2019-03-11T15:41:10Z</time>
      </trkpt>
      <trkpt lat="43.64066" lon="6.27878">
        <ele>1052</ele>
        <time>2019-03-11T15:41:39Z</time>
      </trkpt>
      <trkpt lat="43.64069" lon="6.27866">
        <ele>1045</ele>
        <time>2019-03-11T15:42:11Z</time>
      </trkpt>
      <trkpt lat="43.64077" lon="6.27858">
        <ele>1043</ele>
        <time>2019-03-11T15:42:16Z</time>
      </trkpt>
      <trkpt lat="43.64084" lon="6.27849">
        <ele>1040</ele>
        <time>2019-03-11T15:42:24Z</time>
      </trkpt>
      <trkpt lat="43.64087" lon="6.27831">
        <ele>1041</ele>
        <time>2019-03-11T15:42:31Z</time>
      </trkpt>
      <trkpt lat="43.64098" lon="6.27829">
        <ele>1047</ele>
        <time>2019-03-11T15:42:39Z</time>
      </trkpt>
      <trkpt lat="43.64106" lon="6.27825">
        <ele>1045</ele>
        <time>2019-03-11T15:42:49Z</time>
      </trkpt>
      <trkpt lat="43.64112" lon="6.27815">
        <ele>1044</ele>
        <time>2019-03-11T15:43:04Z</time>
      </trkpt>
      <trkpt lat="43.64124" lon="6.27812">
        <ele>1041</ele>
        <time>2019-03-11T15:43:23Z</time>
      </trkpt>
      <trkpt lat="43.64129" lon="6.278">
        <ele>1040</ele>
        <time>2019-03-11T15:43:28Z</time>
      </trkpt>
      <trkpt lat="43.64135" lon="6.27791">
        <ele>1040</ele>
        <time>2019-03-11T15:43:35Z</time>
      </trkpt>
      <trkpt lat="43.64142" lon="6.27782">
        <ele>1039</ele>
        <time>2019-03-11T15:43:43Z</time>
      </trkpt>
      <trkpt lat="43.64149" lon="6.27772">
        <ele>1040</ele>
        <time>2019-03-11T15:43:51Z</time>
      </trkpt>
      <trkpt lat="43.64155" lon="6.27759">
        <ele>1040</ele>
        <time>2019-03-11T15:43:58Z</time>
      </trkpt>
      <trkpt lat="43.64164" lon="6.27749">
        <ele>1038</ele>
        <time>2019-03-11T15:44:02Z</time>
      </trkpt>
      <trkpt lat="43.64164" lon="6.27741">
        <ele>1034</ele>
        <time>2019-03-11T15:44:32Z</time>
      </trkpt>
      <trkpt lat="43.64174" lon="6.27747">
        <ele>1035</ele>
        <time>2019-03-11T15:44:54Z</time>
      </trkpt>
      <trkpt lat="43.64184" lon="6.27748">
        <ele>1036</ele>
        <time>2019-03-11T15:45:02Z</time>
      </trkpt>
      <trkpt lat="43.64194" lon="6.27752">
        <ele>1034</ele>
        <time>2019-03-11T15:45:08Z</time>
      </trkpt>
      <trkpt lat="43.64211" lon="6.27742">
        <ele>1031</ele>
        <time>2019-03-11T15:45:37Z</time>
      </trkpt>
      <trkpt lat="43.6422" lon="6.27738">
        <ele>1031</ele>
        <time>2019-03-11T15:45:44Z</time>
      </trkpt>
      <trkpt lat="43.64229" lon="6.27737">
        <ele>1035</ele>
        <time>2019-03-11T15:45:52Z</time>
      </trkpt>
      <trkpt lat="43.64238" lon="6.27736">
        <ele>1034</ele>
        <time>2019-03-11T15:46:10Z</time>
      </trkpt>
      <trkpt lat="43.64247" lon="6.27739">
        <ele>1030</ele>
        <time>2019-03-11T15:46:21Z</time>
      </trkpt>
      <trkpt lat="43.64256" lon="6.27735">
        <ele>1025</ele>
        <time>2019-03-11T15:46:34Z</time>
      </trkpt>
      <trkpt lat="43.64263" lon="6.27726">
        <ele>1023</ele>
        <time>2019-03-11T15:46:43Z</time>
      </trkpt>
      <trkpt lat="43.64272" lon="6.27728">
        <ele>1021</ele>
        <time>2019-03-11T15:47:03Z</time>
      </trkpt>
      <trkpt lat="43.6428" lon="6.27723">
        <ele>1014</ele>
        <time>2019-03-11T15:47:18Z</time>
      </trkpt>
      <trkpt lat="43.64289" lon="6.27722">
        <ele>1012</ele>
        <time>2019-03-11T15:47:27Z</time>
      </trkpt>
      <trkpt lat="43.64296" lon="6.27715">
        <ele>1011</ele>
        <time>2019-03-11T15:47:47Z</time>
      </trkpt>
      <trkpt lat="43.64309" lon="6.27709">
        <ele>1011</ele>
        <time>2019-03-11T15:48:36Z</time>
      </trkpt>
      <trkpt lat="43.64322" lon="6.27709">
        <ele>1009</ele>
        <time>2019-03-11T15:48:44Z</time>
      </trkpt>
      <trkpt lat="43.64332" lon="6.27703">
        <ele>1004</ele>
        <time>2019-03-11T15:48:56Z</time>
      </trkpt>
      <trkpt lat="43.64341" lon="6.27698">
        <ele>1001</ele>
        <time>2019-03-11T15:49:10Z</time>
      </trkpt>
      <trkpt lat="43.6435" lon="6.2769">
        <ele>1004</ele>
        <time>2019-03-11T15:49:17Z</time>
      </trkpt>
      <trkpt lat="43.64369" lon="6.27676">
        <ele>1002</ele>
        <time>2019-03-11T15:49:45Z</time>
      </trkpt>
      <trkpt lat="43.64374" lon="6.27663">
        <ele>1000</ele>
        <time>2019-03-11T15:49:55Z</time>
      </trkpt>
      <trkpt lat="43.64385" lon="6.2766">
        <ele>999</ele>
        <time>2019-03-11T15:50:00Z</time>
      </trkpt>
      <trkpt lat="43.64395" lon="6.27651">
        <ele>1001</ele>
        <time>2019-03-11T15:50:09Z</time>
      </trkpt>
      <trkpt lat="43.644" lon="6.27638">
        <ele>1001</ele>
        <time>2019-03-11T15:50:18Z</time>
      </trkpt>
      <trkpt lat="43.64409" lon="6.2763">
        <ele>1002</ele>
        <time>2019-03-11T15:50:28Z</time>
      </trkpt>
      <trkpt lat="43.64418" lon="6.2763">
        <ele>999</ele>
        <time>2019-03-11T15:50:43Z</time>
      </trkpt>
      <trkpt lat="43.64427" lon="6.27626">
        <ele>1000</ele>
        <time>2019-03-11T15:51:06Z</time>
      </trkpt>
      <trkpt lat="43.64434" lon="6.27614">
        <ele>999</ele>
        <time>2019-03-11T15:51:13Z</time>
      </trkpt>
      <trkpt lat="43.64442" lon="6.27616">
        <ele>994</ele>
        <time>2019-03-11T15:52:17Z</time>
      </trkpt>
      <trkpt lat="43.64452" lon="6.27616">
        <ele>993</ele>
        <time>2019-03-11T15:52:24Z</time>
      </trkpt>
      <trkpt lat="43.64458" lon="6.27625">
        <ele>990</ele>
        <time>2019-03-11T15:52:43Z</time>
      </trkpt>
      <trkpt lat="43.64477" lon="6.27637">
        <ele>991</ele>
        <time>2019-03-11T15:52:54Z</time>
      </trkpt>
      <trkpt lat="43.64483" lon="6.27647">
        <ele>988</ele>
        <time>2019-03-11T15:53:03Z</time>
      </trkpt>
      <trkpt lat="43.64494" lon="6.27667">
        <ele>986</ele>
        <time>2019-03-11T15:53:20Z</time>
      </trkpt>
      <trkpt lat="43.64505" lon="6.27668">
        <ele>984</ele>
        <time>2019-03-11T15:53:29Z</time>
      </trkpt>
      <trkpt lat="43.64508" lon="6.27679">
        <ele>981</ele>
        <time>2019-03-11T15:53:42Z</time>
      </trkpt>
      <trkpt lat="43.64515" lon="6.27687">
        <ele>981</ele>
        <time>2019-03-11T15:53:56Z</time>
      </trkpt>
      <trkpt lat="43.64516" lon="6.27701">
        <ele>985</ele>
        <time>2019-03-11T15:54:06Z</time>
      </trkpt>
      <trkpt lat="43.6452" lon="6.27712">
        <ele>984</ele>
        <time>2019-03-11T15:54:20Z</time>
      </trkpt>
      <trkpt lat="43.64521" lon="6.27723">
        <ele>980</ele>
        <time>2019-03-11T15:54:31Z</time>
      </trkpt>
      <trkpt lat="43.64521" lon="6.27741">
        <ele>978</ele>
        <time>2019-03-11T15:54:36Z</time>
      </trkpt>
      <trkpt lat="43.64526" lon="6.2775">
        <ele>979</ele>
        <time>2019-03-11T15:54:43Z</time>
      </trkpt>
      <trkpt lat="43.64524" lon="6.27743">
        <ele>972</ele>
        <time>2019-03-11T15:57:24Z</time>
      </trkpt>
      <trkpt lat="43.64528" lon="6.27733">
        <ele>973</ele>
        <time>2019-03-11T15:57:28Z</time>
      </trkpt>
      <trkpt lat="43.64525" lon="6.27722">
        <ele>974</ele>
        <time>2019-03-11T15:58:09Z</time>
      </trkpt>
      <trkpt lat="43.64521" lon="6.27726">
        <ele>976</ele>
        <time>2019-03-11T15:59:19Z</time>
      </trkpt>
      <trkpt lat="43.64525" lon="6.27737">
        <ele>976</ele>
        <time>2019-03-11T15:59:27Z</time>
      </trkpt>
      <trkpt lat="43.6453" lon="6.27749">
        <ele>977</ele>
        <time>2019-03-11T16:00:00Z</time>
      </trkpt>
      <trkpt lat="43.64539" lon="6.27752">
        <ele>975</ele>
        <time>2019-03-11T16:00:07Z</time>
      </trkpt>
      <trkpt lat="43.64548" lon="6.27753">
        <ele>969</ele>
        <time>2019-03-11T16:00:14Z</time>
      </trkpt>
      <trkpt lat="43.64566" lon="6.27753">
        <ele>968</ele>
        <time>2019-03-11T16:00:33Z</time>
      </trkpt>
      <trkpt lat="43.64575" lon="6.27748">
        <ele>966</ele>
        <time>2019-03-11T16:00:40Z</time>
      </trkpt>
      <trkpt lat="43.64584" lon="6.27742">
        <ele>964</ele>
        <time>2019-03-11T16:00:52Z</time>
      </trkpt>
      <trkpt lat="43.64599" lon="6.2774">
        <ele>962</ele>
        <time>2019-03-11T16:01:47Z</time>
      </trkpt>
      <trkpt lat="43.64602" lon="6.27733">
        <ele>961</ele>
        <time>2019-03-11T16:02:15Z</time>
      </trkpt>
      <trkpt lat="43.6461" lon="6.27729">
        <ele>962</ele>
        <time>2019-03-11T16:02:21Z</time>
      </trkpt>
      <trkpt lat="43.64613" lon="6.27724">
        <ele>961</ele>
        <time>2019-03-11T16:02:29Z</time>
      </trkpt>
      <trkpt lat="43.64617" lon="6.27722">
        <ele>959</ele>
        <time>2019-03-11T16:02:32Z</time>
      </trkpt>
      <trkpt lat="43.64621" lon="6.27721">
        <ele>959</ele>
        <time>2019-03-11T16:02:36Z</time>
      </trkpt>
      <trkpt lat="43.64627" lon="6.27717">
        <ele>959</ele>
        <time>2019-03-11T16:02:48Z</time>
      </trkpt>
      <trkpt lat="43.64632" lon="6.27712">
        <ele>957</ele>
        <time>2019-03-11T16:02:52Z</time>
      </trkpt>
      <trkpt lat="43.6464" lon="6.27703">
        <ele>952</ele>
        <time>2019-03-11T16:03:07Z</time>
      </trkpt>
      <trkpt lat="43.64647" lon="6.27699">
        <ele>952</ele>
        <time>2019-03-11T16:03:12Z</time>
      </trkpt>
      <trkpt lat="43.64652" lon="6.27694">
        <ele>954</ele>
        <time>2019-03-11T16:03:24Z</time>
      </trkpt>
      <trkpt lat="43.64665" lon="6.27691">
        <ele>955</ele>
        <time>2019-03-11T16:03:32Z</time>
      </trkpt>
      <trkpt lat="43.64675" lon="6.27682">
        <ele>955</ele>
        <time>2019-03-11T16:03:54Z</time>
      </trkpt>
      <trkpt lat="43.64684" lon="6.2768">
        <ele>954</ele>
        <time>2019-03-11T16:03:58Z</time>
      </trkpt>
      <trkpt lat="43.64694" lon="6.27676">
        <ele>959</ele>
        <time>2019-03-11T16:04:02Z</time>
      </trkpt>
      <trkpt lat="43.647" lon="6.27674">
        <ele>961</ele>
        <time>2019-03-11T16:04:09Z</time>
      </trkpt>
      <trkpt lat="43.6471" lon="6.27665">
        <ele>963</ele>
        <time>2019-03-11T16:04:22Z</time>
      </trkpt>
      <trkpt lat="43.64717" lon="6.27658">
        <ele>959</ele>
        <time>2019-03-11T16:04:30Z</time>
      </trkpt>
      <trkpt lat="43.64722" lon="6.27651">
        <ele>956</ele>
        <time>2019-03-11T16:04:37Z</time>
      </trkpt>
      <trkpt lat="43.64727" lon="6.27643">
        <ele>950</ele>
        <time>2019-03-11T16:04:46Z</time>
      </trkpt>
      <trkpt lat="43.6474" lon="6.27633">
        <ele>945</ele>
        <time>2019-03-11T16:04:59Z</time>
      </trkpt>
      <trkpt lat="43.64744" lon="6.2763">
        <ele>944</ele>
        <time>2019-03-11T16:05:04Z</time>
      </trkpt>
      <trkpt lat="43.64751" lon="6.2762">
        <ele>940</ele>
        <time>2019-03-11T16:05:12Z</time>
      </trkpt>
      <trkpt lat="43.6476" lon="6.27616">
        <ele>943</ele>
        <time>2019-03-11T16:05:20Z</time>
      </trkpt>
      <trkpt lat="43.64764" lon="6.27611">
        <ele>941</ele>
        <time>2019-03-11T16:05:28Z</time>
      </trkpt>
      <trkpt lat="43.64768" lon="6.27605">
        <ele>939</ele>
        <time>2019-03-11T16:05:35Z</time>
      </trkpt>
      <trkpt lat="43.64782" lon="6.27591">
        <ele>939</ele>
        <time>2019-03-11T16:05:46Z</time>
      </trkpt>
      <trkpt lat="43.64789" lon="6.27585">
        <ele>938</ele>
        <time>2019-03-11T16:05:51Z</time>
      </trkpt>
      <trkpt lat="43.64788" lon="6.27577">
        <ele>937</ele>
        <time>2019-03-11T16:05:54Z</time>
      </trkpt>
      <trkpt lat="43.64789" lon="6.2757">
        <ele>937</ele>
        <time>2019-03-11T16:06:03Z</time>
      </trkpt>
      <trkpt lat="43.64791" lon="6.27564">
        <ele>937</ele>
        <time>2019-03-11T16:06:10Z</time>
      </trkpt>
      <trkpt lat="43.64791" lon="6.27558">
        <ele>938</ele>
        <time>2019-03-11T16:06:16Z</time>
      </trkpt>
      <trkpt lat="43.64793" lon="6.27549">
        <ele>935</ele>
        <time>2019-03-11T16:06:24Z</time>
      </trkpt>
      <trkpt lat="43.64791" lon="6.2754">
        <ele>934</ele>
        <time>2019-03-11T16:06:35Z</time>
      </trkpt>
      <trkpt lat="43.6478" lon="6.27534">
        <ele>925</ele>
        <time>2019-03-11T16:06:50Z</time>
      </trkpt>
      <trkpt lat="43.64778" lon="6.27527">
        <ele>924</ele>
        <time>2019-03-11T16:06:58Z</time>
      </trkpt>
      <trkpt lat="43.64774" lon="6.27521">
        <ele>922</ele>
        <time>2019-03-11T16:07:03Z</time>
      </trkpt>
      <trkpt lat="43.64771" lon="6.27514">
        <ele>922</ele>
        <time>2019-03-11T16:07:10Z</time>
      </trkpt>
      <trkpt lat="43.64772" lon="6.27507">
        <ele>922</ele>
        <time>2019-03-11T16:07:14Z</time>
      </trkpt>
      <trkpt lat="43.64769" lon="6.27503">
        <ele>921</ele>
        <time>2019-03-11T16:07:19Z</time>
      </trkpt>
      <trkpt lat="43.64768" lon="6.27495">
        <ele>916</ele>
        <time>2019-03-11T16:07:30Z</time>
      </trkpt>
      <trkpt lat="43.64763" lon="6.27489">
        <ele>915</ele>
        <time>2019-03-11T16:07:34Z</time>
      </trkpt>
      <trkpt lat="43.64764" lon="6.27481">
        <ele>914</ele>
        <time>2019-03-11T16:07:41Z</time>
      </trkpt>
      <trkpt lat="43.64761" lon="6.27477">
        <ele>914</ele>
        <time>2019-03-11T16:07:43Z</time>
      </trkpt>
      <trkpt lat="43.64758" lon="6.27467">
        <ele>912</ele>
        <time>2019-03-11T16:07:58Z</time>
      </trkpt>
      <trkpt lat="43.64766" lon="6.27466">
        <ele>914</ele>
        <time>2019-03-11T16:08:17Z</time>
      </trkpt>
      <trkpt lat="43.64782" lon="6.2747">
        <ele>913</ele>
        <time>2019-03-11T16:08:50Z</time>
      </trkpt>
      <trkpt lat="43.64791" lon="6.27468">
        <ele>911</ele>
        <time>2019-03-11T16:09:13Z</time>
      </trkpt>
      <trkpt lat="43.648" lon="6.2747">
        <ele>906</ele>
        <time>2019-03-11T16:09:23Z</time>
      </trkpt>
      <trkpt lat="43.64808" lon="6.27475">
        <ele>906</ele>
        <time>2019-03-11T16:09:41Z</time>
      </trkpt>
      <trkpt lat="43.64817" lon="6.27477">
        <ele>904</ele>
        <time>2019-03-11T16:09:51Z</time>
      </trkpt>
      <trkpt lat="43.64825" lon="6.27484">
        <ele>905</ele>
        <time>2019-03-11T16:10:17Z</time>
      </trkpt>
      <trkpt lat="43.64834" lon="6.27487">
        <ele>904</ele>
        <time>2019-03-11T16:10:25Z</time>
      </trkpt>
      <trkpt lat="43.64842" lon="6.27496">
        <ele>899</ele>
        <time>2019-03-11T16:10:36Z</time>
      </trkpt>
      <trkpt lat="43.64849" lon="6.27503">
        <ele>896</ele>
        <time>2019-03-11T16:10:58Z</time>
      </trkpt>
      <trkpt lat="43.64865" lon="6.27531">
        <ele>896</ele>
        <time>2019-03-11T16:11:29Z</time>
      </trkpt>
      <trkpt lat="43.64873" lon="6.27539">
        <ele>894</ele>
        <time>2019-03-11T16:11:37Z</time>
      </trkpt>
      <trkpt lat="43.6488" lon="6.27545">
        <ele>890</ele>
        <time>2019-03-11T16:11:50Z</time>
      </trkpt>
      <trkpt lat="43.64886" lon="6.27548">
        <ele>888</ele>
        <time>2019-03-11T16:11:58Z</time>
      </trkpt>
      <trkpt lat="43.6489" lon="6.27549">
        <ele>888</ele>
        <time>2019-03-11T16:12:02Z</time>
      </trkpt>
      <trkpt lat="43.64893" lon="6.27553">
        <ele>888</ele>
        <time>2019-03-11T16:12:08Z</time>
      </trkpt>
      <trkpt lat="43.64907" lon="6.27562">
        <ele>886</ele>
        <time>2019-03-11T16:12:46Z</time>
      </trkpt>
      <trkpt lat="43.64916" lon="6.27564">
        <ele>890</ele>
        <time>2019-03-11T16:12:51Z</time>
      </trkpt>
      <trkpt lat="43.64925" lon="6.2757">
        <ele>891</ele>
        <time>2019-03-11T16:12:56Z</time>
      </trkpt>
      <trkpt lat="43.64933" lon="6.27579">
        <ele>892</ele>
        <time>2019-03-11T16:13:03Z</time>
      </trkpt>
      <trkpt lat="43.64938" lon="6.27581">
        <ele>891</ele>
        <time>2019-03-11T16:13:09Z</time>
      </trkpt>
      <trkpt lat="43.64946" lon="6.2758">
        <ele>889</ele>
        <time>2019-03-11T16:13:11Z</time>
      </trkpt>
      <trkpt lat="43.64953" lon="6.27584">
        <ele>889</ele>
        <time>2019-03-11T16:13:17Z</time>
      </trkpt>
      <trkpt lat="43.64958" lon="6.27591">
        <ele>891</ele>
        <time>2019-03-11T16:13:28Z</time>
      </trkpt>
      <trkpt lat="43.64968" lon="6.27588">
        <ele>887</ele>
        <time>2019-03-11T16:13:37Z</time>
      </trkpt>
      <trkpt lat="43.64976" lon="6.27577">
        <ele>879</ele>
        <time>2019-03-11T16:13:47Z</time>
      </trkpt>
      <trkpt lat="43.64983" lon="6.27565">
        <ele>881</ele>
        <time>2019-03-11T16:13:55Z</time>
      </trkpt>
      <trkpt lat="43.64992" lon="6.2756">
        <ele>883</ele>
        <time>2019-03-11T16:14:01Z</time>
      </trkpt>
      <trkpt lat="43.64998" lon="6.27551">
        <ele>885</ele>
        <time>2019-03-11T16:14:11Z</time>
      </trkpt>
      <trkpt lat="43.65016" lon="6.27541">
        <ele>882</ele>
        <time>2019-03-11T16:14:29Z</time>
      </trkpt>
      <trkpt lat="43.6502" lon="6.27539">
        <ele>881</ele>
        <time>2019-03-11T16:14:32Z</time>
      </trkpt>
      <trkpt lat="43.65024" lon="6.27537">
        <ele>882</ele>
        <time>2019-03-11T16:14:35Z</time>
      </trkpt>
      <trkpt lat="43.65029" lon="6.27535">
        <ele>881</ele>
        <time>2019-03-11T16:14:38Z</time>
      </trkpt>
      <trkpt lat="43.65045" lon="6.27531">
        <ele>877</ele>
        <time>2019-03-11T16:15:00Z</time>
      </trkpt>
      <trkpt lat="43.65059" lon="6.27524">
        <ele>877</ele>
        <time>2019-03-11T16:15:08Z</time>
      </trkpt>
      <trkpt lat="43.65081" lon="6.2752">
        <ele>883</ele>
        <time>2019-03-11T16:15:36Z</time>
      </trkpt>
      <trkpt lat="43.65089" lon="6.27514">
        <ele>877</ele>
        <time>2019-03-11T16:15:43Z</time>
      </trkpt>
      <trkpt lat="43.65099" lon="6.27509">
        <ele>875</ele>
        <time>2019-03-11T16:15:51Z</time>
      </trkpt>
      <trkpt lat="43.65117" lon="6.27501">
        <ele>877</ele>
        <time>2019-03-11T16:16:03Z</time>
      </trkpt>
      <trkpt lat="43.65124" lon="6.27494">
        <ele>876</ele>
        <time>2019-03-11T16:16:13Z</time>
      </trkpt>
      <trkpt lat="43.65153" lon="6.27498">
        <ele>861</ele>
        <time>2019-03-11T16:16:48Z</time>
      </trkpt>
      <trkpt lat="43.65163" lon="6.27502">
        <ele>861</ele>
        <time>2019-03-11T16:16:55Z</time>
      </trkpt>
      <trkpt lat="43.65172" lon="6.27504">
        <ele>862</ele>
        <time>2019-03-11T16:17:06Z</time>
      </trkpt>
      <trkpt lat="43.65178" lon="6.27497">
        <ele>861</ele>
        <time>2019-03-11T16:17:12Z</time>
      </trkpt>
      <trkpt lat="43.65181" lon="6.27486">
        <ele>851</ele>
        <time>2019-03-11T16:17:59Z</time>
      </trkpt>
      <trkpt lat="43.65183" lon="6.27475">
        <ele>848</ele>
        <time>2019-03-11T16:18:22Z</time>
      </trkpt>
      <trkpt lat="43.65193" lon="6.2747">
        <ele>848</ele>
        <time>2019-03-11T16:18:30Z</time>
      </trkpt>
      <trkpt lat="43.652" lon="6.27464">
        <ele>851</ele>
        <time>2019-03-11T16:18:39Z</time>
      </trkpt>
      <trkpt lat="43.65215" lon="6.27449">
        <ele>854</ele>
        <time>2019-03-11T16:18:56Z</time>
      </trkpt>
      <trkpt lat="43.65227" lon="6.27432">
        <ele>850</ele>
        <time>2019-03-11T16:19:12Z</time>
      </trkpt>
      <trkpt lat="43.65243" lon="6.27415">
        <ele>856</ele>
        <time>2019-03-11T16:19:31Z</time>
      </trkpt>
      <trkpt lat="43.65249" lon="6.27407">
        <ele>854</ele>
        <time>2019-03-11T16:19:40Z</time>
      </trkpt>
      <trkpt lat="43.65256" lon="6.274">
        <ele>853</ele>
        <time>2019-03-11T16:19:47Z</time>
      </trkpt>
      <trkpt lat="43.6526" lon="6.27399">
        <ele>854</ele>
        <time>2019-03-11T16:19:50Z</time>
      </trkpt>
      <trkpt lat="43.65271" lon="6.27387">
        <ele>852</ele>
        <time>2019-03-11T16:20:05Z</time>
      </trkpt>
      <trkpt lat="43.65272" lon="6.27382">
        <ele>853</ele>
        <time>2019-03-11T16:20:07Z</time>
      </trkpt>
      <trkpt lat="43.65273" lon="6.27386">
        <ele>853</ele>
        <time>2019-03-11T16:21:27Z</time>
      </trkpt>
      <trkpt lat="43.65289" lon="6.27371">
        <ele>852</ele>
        <time>2019-03-11T16:22:01Z</time>
      </trkpt>
      <trkpt lat="43.65309" lon="6.27363">
        <ele>855</ele>
        <time>2019-03-11T16:22:20Z</time>
      </trkpt>
      <trkpt lat="43.6531" lon="6.27366">
        <ele>856</ele>
        <time>2019-03-11T16:22:50Z</time>
      </trkpt>
      <trkpt lat="43.65314" lon="6.27357">
        <ele>856</ele>
        <time>2019-03-11T16:23:15Z</time>
      </trkpt>
      <trkpt lat="43.65313" lon="6.27351">
        <ele>855</ele>
        <time>2019-03-11T16:23:24Z</time>
      </trkpt>
      <trkpt lat="43.65313" lon="6.27339">
        <ele>853</ele>
        <time>2019-03-11T16:24:03Z</time>
      </trkpt>
      <trkpt lat="43.65314" lon="6.27331">
        <ele>854</ele>
        <time>2019-03-11T16:24:08Z</time>
      </trkpt>
      <trkpt lat="43.65321" lon="6.27332">
        <ele>853</ele>
        <time>2019-03-11T16:24:13Z</time>
      </trkpt>
      <trkpt lat="43.65326" lon="6.27338">
        <ele>854</ele>
        <time>2019-03-11T16:24:16Z</time>
      </trkpt>
      <trkpt lat="43.65327" lon="6.27343">
        <ele>856</ele>
        <time>2019-03-11T16:24:21Z</time>
      </trkpt>
      <trkpt lat="43.65331" lon="6.27347">
        <ele>857</ele>
        <time>2019-03-11T16:24:26Z</time>
      </trkpt>
      <trkpt lat="43.65334" lon="6.27354">
        <ele>856</ele>
        <time>2019-03-11T16:24:45Z</time>
      </trkpt>
      <trkpt lat="43.65344" lon="6.27361">
        <ele>856</ele>
        <time>2019-03-11T16:24:54Z</time>
      </trkpt>
      <trkpt lat="43.65351" lon="6.27367">
        <ele>856</ele>
        <time>2019-03-11T16:24:58Z</time>
      </trkpt>
      <trkpt lat="43.65361" lon="6.27357">
        <ele>854</ele>
        <time>2019-03-11T16:25:07Z</time>
      </trkpt>
      <trkpt lat="43.6537" lon="6.27357">
        <ele>854</ele>
        <time>2019-03-11T16:25:12Z</time>
      </trkpt>
    </trkseg>
  </trk>
</gpx>